<?xml version="1.0" encoding="utf-8"?>
<gpx xmlns:xsi="http://www.w3.org/2001/XMLSchema-instance" xmlns:xsd="http://www.w3.org/2001/XMLSchema" version="1.1" creator="Shapelink.com" xmlns="http://www.topografix.com/GPX/1/1" xmlns:gpxtpx="http://www.garmin.com/xmlschemas/TrackPointExtension/v1">
  <metadata>
    <name>Rullskidor - Klassisk 9.25 km, 2013-12-31</name>
    <desc></desc>
    <author><name>Alexander Engvall</name></author> 
    <time>2013-12-31T12:42:25Z</time>
  </metadata>
  <trk>
    <name>Rullskidor - Klassisk 9.25 km, 2013-12-31</name>
    <trkseg>
      <trkpt lat="59.238006" lon="17.946359">
        <ele>46</ele>
        <time>2013-12-31T12:42:25Z</time>
      </trkpt>
      <trkpt lat="59.237991" lon="17.946329">
        <ele>45.8</ele>
        <time>2013-12-31T12:42:26Z</time>
      </trkpt>
      <trkpt lat="59.237906" lon="17.946287">
        <ele>45.6</ele>
        <time>2013-12-31T12:42:28Z</time>
      </trkpt>
      <trkpt lat="59.237883" lon="17.946236">
        <ele>45.5</ele>
        <time>2013-12-31T12:42:29Z</time>
      </trkpt>
      <trkpt lat="59.237865" lon="17.946171">
        <ele>45.1</ele>
        <time>2013-12-31T12:42:30Z</time>
      </trkpt>
      <trkpt lat="59.237846" lon="17.946032">
        <ele>44.7</ele>
        <time>2013-12-31T12:42:32Z</time>
      </trkpt>
      <trkpt lat="59.237848" lon="17.945897">
        <ele>44.7</ele>
        <time>2013-12-31T12:42:34Z</time>
      </trkpt>
      <trkpt lat="59.237876" lon="17.945687">
        <ele>44.7</ele>
        <time>2013-12-31T12:42:38Z</time>
      </trkpt>
      <trkpt lat="59.237883" lon="17.945651">
        <ele>45.1</ele>
        <time>2013-12-31T12:42:39Z</time>
      </trkpt>
      <trkpt lat="59.237923" lon="17.94551">
        <ele>45.5</ele>
        <time>2013-12-31T12:42:42Z</time>
      </trkpt>
      <trkpt lat="59.237963" lon="17.945369">
        <ele>45.6</ele>
        <time>2013-12-31T12:42:44Z</time>
      </trkpt>
      <trkpt lat="59.238004" lon="17.945226">
        <ele>45.8</ele>
        <time>2013-12-31T12:42:46Z</time>
      </trkpt>
      <trkpt lat="59.238044" lon="17.945084">
        <ele>46</ele>
        <time>2013-12-31T12:42:48Z</time>
      </trkpt>
      <trkpt lat="59.238085" lon="17.94494">
        <ele>46.2</ele>
        <time>2013-12-31T12:42:49Z</time>
      </trkpt>
      <trkpt lat="59.238125" lon="17.944797">
        <ele>46.4</ele>
        <time>2013-12-31T12:42:51Z</time>
      </trkpt>
      <trkpt lat="59.238169" lon="17.944617">
        <ele>46.4</ele>
        <time>2013-12-31T12:42:54Z</time>
      </trkpt>
      <trkpt lat="59.238214" lon="17.944438">
        <ele>46.4</ele>
        <time>2013-12-31T12:42:58Z</time>
      </trkpt>
      <trkpt lat="59.238261" lon="17.944262">
        <ele>46</ele>
        <time>2013-12-31T12:43:01Z</time>
      </trkpt>
      <trkpt lat="59.238309" lon="17.944086">
        <ele>45.6</ele>
        <time>2013-12-31T12:43:02Z</time>
      </trkpt>
      <trkpt lat="59.238358" lon="17.943913">
        <ele>45.3</ele>
        <time>2013-12-31T12:43:07Z</time>
      </trkpt>
      <trkpt lat="59.238407" lon="17.94374">
        <ele>44.9</ele>
        <time>2013-12-31T12:43:08Z</time>
      </trkpt>
      <trkpt lat="59.238449" lon="17.943637">
        <ele>44.7</ele>
        <time>2013-12-31T12:43:09Z</time>
      </trkpt>
      <trkpt lat="59.238492" lon="17.943533">
        <ele>44.5</ele>
        <time>2013-12-31T12:43:12Z</time>
      </trkpt>
      <trkpt lat="59.238535" lon="17.943428">
        <ele>44.1</ele>
        <time>2013-12-31T12:43:16Z</time>
      </trkpt>
      <trkpt lat="59.238578" lon="17.943322">
        <ele>43.6</ele>
        <time>2013-12-31T12:43:18Z</time>
      </trkpt>
      <trkpt lat="59.238621" lon="17.943214">
        <ele>43.2</ele>
        <time>2013-12-31T12:43:22Z</time>
      </trkpt>
      <trkpt lat="59.238665" lon="17.943106">
        <ele>42.9</ele>
        <time>2013-12-31T12:43:24Z</time>
      </trkpt>
      <trkpt lat="59.238759" lon="17.943017">
        <ele>42.6</ele>
        <time>2013-12-31T12:43:25Z</time>
      </trkpt>
      <trkpt lat="59.238854" lon="17.94293">
        <ele>42.4</ele>
        <time>2013-12-31T12:43:27Z</time>
      </trkpt>
      <trkpt lat="59.238949" lon="17.942846">
        <ele>42.1</ele>
        <time>2013-12-31T12:43:29Z</time>
      </trkpt>
      <trkpt lat="59.239045" lon="17.942763">
        <ele>41.8</ele>
        <time>2013-12-31T12:43:30Z</time>
      </trkpt>
      <trkpt lat="59.23914" lon="17.942684">
        <ele>41.5</ele>
        <time>2013-12-31T12:43:31Z</time>
      </trkpt>
      <trkpt lat="59.239235" lon="17.942604">
        <ele>41.3</ele>
        <time>2013-12-31T12:43:33Z</time>
      </trkpt>
      <trkpt lat="59.239289" lon="17.942539">
        <ele>41</ele>
        <time>2013-12-31T12:43:37Z</time>
      </trkpt>
      <trkpt lat="59.239343" lon="17.942473">
        <ele>40.5</ele>
        <time>2013-12-31T12:43:42Z</time>
      </trkpt>
      <trkpt lat="59.239398" lon="17.942408">
        <ele>40.3</ele>
        <time>2013-12-31T12:43:47Z</time>
      </trkpt>
      <trkpt lat="59.239452" lon="17.942342">
        <ele>40</ele>
        <time>2013-12-31T12:43:52Z</time>
      </trkpt>
      <trkpt lat="59.239506" lon="17.942277">
        <ele>39.7</ele>
        <time>2013-12-31T12:43:54Z</time>
      </trkpt>
      <trkpt lat="59.23956" lon="17.942212">
        <ele>39.5</ele>
        <time>2013-12-31T12:43:56Z</time>
      </trkpt>
      <trkpt lat="59.239595" lon="17.942023">
        <ele>39.4</ele>
        <time>2013-12-31T12:43:59Z</time>
      </trkpt>
      <trkpt lat="59.239629" lon="17.941833">
        <ele>39.2</ele>
        <time>2013-12-31T12:44:02Z</time>
      </trkpt>
      <trkpt lat="59.239663" lon="17.941644">
        <ele>39</ele>
        <time>2013-12-31T12:44:04Z</time>
      </trkpt>
      <trkpt lat="59.239698" lon="17.941455">
        <ele>38.8</ele>
        <time>2013-12-31T12:44:05Z</time>
      </trkpt>
      <trkpt lat="59.239732" lon="17.941266">
        <ele>38.6</ele>
        <time>2013-12-31T12:44:09Z</time>
      </trkpt>
      <trkpt lat="59.239767" lon="17.941077">
        <ele>38.5</ele>
        <time>2013-12-31T12:44:10Z</time>
      </trkpt>
      <trkpt lat="59.239786" lon="17.940825">
        <ele>38.5</ele>
        <time>2013-12-31T12:44:13Z</time>
      </trkpt>
      <trkpt lat="59.239806" lon="17.940572">
        <ele>38.5</ele>
        <time>2013-12-31T12:44:15Z</time>
      </trkpt>
      <trkpt lat="59.239825" lon="17.940322">
        <ele>38.4</ele>
        <time>2013-12-31T12:44:18Z</time>
      </trkpt>
      <trkpt lat="59.239845" lon="17.940072">
        <ele>38.3</ele>
        <time>2013-12-31T12:44:20Z</time>
      </trkpt>
      <trkpt lat="59.239866" lon="17.939817">
        <ele>38</ele>
        <time>2013-12-31T12:44:23Z</time>
      </trkpt>
      <trkpt lat="59.239888" lon="17.939561">
        <ele>37.7</ele>
        <time>2013-12-31T12:44:25Z</time>
      </trkpt>
      <trkpt lat="59.239909" lon="17.939309">
        <ele>37.5</ele>
        <time>2013-12-31T12:44:28Z</time>
      </trkpt>
      <trkpt lat="59.23993" lon="17.939058">
        <ele>37.2</ele>
        <time>2013-12-31T12:44:31Z</time>
      </trkpt>
      <trkpt lat="59.23995" lon="17.938852">
        <ele>36.9</ele>
        <time>2013-12-31T12:44:33Z</time>
      </trkpt>
      <trkpt lat="59.239972" lon="17.938642">
        <ele>36.5</ele>
        <time>2013-12-31T12:44:36Z</time>
      </trkpt>
      <trkpt lat="59.239994" lon="17.938432">
        <ele>36.2</ele>
        <time>2013-12-31T12:44:38Z</time>
      </trkpt>
      <trkpt lat="59.240062" lon="17.938303">
        <ele>36</ele>
        <time>2013-12-31T12:44:43Z</time>
      </trkpt>
      <trkpt lat="59.24013" lon="17.938174">
        <ele>36.2</ele>
        <time>2013-12-31T12:44:44Z</time>
      </trkpt>
      <trkpt lat="59.240199" lon="17.938042">
        <ele>36.4</ele>
        <time>2013-12-31T12:44:47Z</time>
      </trkpt>
      <trkpt lat="59.240269" lon="17.93791">
        <ele>36.5</ele>
        <time>2013-12-31T12:44:48Z</time>
      </trkpt>
      <trkpt lat="59.240339" lon="17.937776">
        <ele>36.5</ele>
        <time>2013-12-31T12:44:52Z</time>
      </trkpt>
      <trkpt lat="59.240409" lon="17.937641">
        <ele>36.4</ele>
        <time>2013-12-31T12:44:55Z</time>
      </trkpt>
      <trkpt lat="59.24048" lon="17.937504">
        <ele>36.3</ele>
        <time>2013-12-31T12:44:56Z</time>
      </trkpt>
      <trkpt lat="59.240551" lon="17.937365">
        <ele>36.2</ele>
        <time>2013-12-31T12:45:01Z</time>
      </trkpt>
      <trkpt lat="59.240653" lon="17.937216">
        <ele>36.1</ele>
        <time>2013-12-31T12:45:06Z</time>
      </trkpt>
      <trkpt lat="59.240754" lon="17.937067">
        <ele>36.1</ele>
        <time>2013-12-31T12:45:10Z</time>
      </trkpt>
      <trkpt lat="59.24085" lon="17.936926">
        <ele>36.4</ele>
        <time>2013-12-31T12:45:14Z</time>
      </trkpt>
      <trkpt lat="59.240946" lon="17.936786">
        <ele>36.6</ele>
        <time>2013-12-31T12:45:19Z</time>
      </trkpt>
      <trkpt lat="59.241044" lon="17.936647">
        <ele>36.5</ele>
        <time>2013-12-31T12:45:25Z</time>
      </trkpt>
      <trkpt lat="59.241142" lon="17.936509">
        <ele>36.5</ele>
        <time>2013-12-31T12:45:28Z</time>
      </trkpt>
      <trkpt lat="59.241242" lon="17.936371">
        <ele>36.4</ele>
        <time>2013-12-31T12:45:29Z</time>
      </trkpt>
      <trkpt lat="59.241342" lon="17.936234">
        <ele>36.6</ele>
        <time>2013-12-31T12:45:30Z</time>
      </trkpt>
      <trkpt lat="59.241401" lon="17.936105">
        <ele>36.8</ele>
        <time>2013-12-31T12:45:34Z</time>
      </trkpt>
      <trkpt lat="59.241459" lon="17.935979">
        <ele>37</ele>
        <time>2013-12-31T12:45:38Z</time>
      </trkpt>
      <trkpt lat="59.241518" lon="17.935855">
        <ele>37.2</ele>
        <time>2013-12-31T12:45:43Z</time>
      </trkpt>
      <trkpt lat="59.241577" lon="17.935733">
        <ele>37.4</ele>
        <time>2013-12-31T12:45:46Z</time>
      </trkpt>
      <trkpt lat="59.241636" lon="17.935614">
        <ele>37.7</ele>
        <time>2013-12-31T12:45:47Z</time>
      </trkpt>
      <trkpt lat="59.241695" lon="17.935495">
        <ele>37.8</ele>
        <time>2013-12-31T12:45:49Z</time>
      </trkpt>
      <trkpt lat="59.241711" lon="17.935291">
        <ele>37.9</ele>
        <time>2013-12-31T12:45:51Z</time>
      </trkpt>
      <trkpt lat="59.241726" lon="17.935088">
        <ele>38</ele>
        <time>2013-12-31T12:45:52Z</time>
      </trkpt>
      <trkpt lat="59.241741" lon="17.934886">
        <ele>38.1</ele>
        <time>2013-12-31T12:45:53Z</time>
      </trkpt>
      <trkpt lat="59.241755" lon="17.934684">
        <ele>38.3</ele>
        <time>2013-12-31T12:45:55Z</time>
      </trkpt>
      <trkpt lat="59.241769" lon="17.934482">
        <ele>38.5</ele>
        <time>2013-12-31T12:45:57Z</time>
      </trkpt>
      <trkpt lat="59.241782" lon="17.934281">
        <ele>38.7</ele>
        <time>2013-12-31T12:46:01Z</time>
      </trkpt>
      <trkpt lat="59.241781" lon="17.933795">
        <ele>39.5</ele>
        <time>2013-12-31T12:46:05Z</time>
      </trkpt>
      <trkpt lat="59.24178" lon="17.933548">
        <ele>39.8</ele>
        <time>2013-12-31T12:46:09Z</time>
      </trkpt>
      <trkpt lat="59.241779" lon="17.9333">
        <ele>40</ele>
        <time>2013-12-31T12:46:14Z</time>
      </trkpt>
      <trkpt lat="59.241778" lon="17.933048">
        <ele>40.2</ele>
        <time>2013-12-31T12:46:19Z</time>
      </trkpt>
      <trkpt lat="59.241776" lon="17.932797">
        <ele>40.4</ele>
        <time>2013-12-31T12:46:23Z</time>
      </trkpt>
      <trkpt lat="59.24177" lon="17.932615">
        <ele>40.5</ele>
        <time>2013-12-31T12:46:28Z</time>
      </trkpt>
      <trkpt lat="59.241764" lon="17.932434">
        <ele>40.7</ele>
        <time>2013-12-31T12:46:32Z</time>
      </trkpt>
      <trkpt lat="59.241759" lon="17.932252">
        <ele>40.8</ele>
        <time>2013-12-31T12:46:36Z</time>
      </trkpt>
      <trkpt lat="59.241755" lon="17.93207">
        <ele>40.9</ele>
        <time>2013-12-31T12:46:40Z</time>
      </trkpt>
      <trkpt lat="59.241751" lon="17.931889">
        <ele>41.1</ele>
        <time>2013-12-31T12:46:45Z</time>
      </trkpt>
      <trkpt lat="59.241748" lon="17.931708">
        <ele>41.2</ele>
        <time>2013-12-31T12:46:46Z</time>
      </trkpt>
      <trkpt lat="59.241851" lon="17.931705">
        <ele>41.3</ele>
        <time>2013-12-31T12:46:49Z</time>
      </trkpt>
      <trkpt lat="59.241956" lon="17.931704">
        <ele>41.4</ele>
        <time>2013-12-31T12:46:53Z</time>
      </trkpt>
      <trkpt lat="59.242062" lon="17.931705">
        <ele>41.5</ele>
        <time>2013-12-31T12:46:55Z</time>
      </trkpt>
      <trkpt lat="59.242168" lon="17.931708">
        <ele>41.5</ele>
        <time>2013-12-31T12:46:58Z</time>
      </trkpt>
      <trkpt lat="59.242275" lon="17.931714">
        <ele>41.6</ele>
        <time>2013-12-31T12:47:03Z</time>
      </trkpt>
      <trkpt lat="59.242383" lon="17.93172">
        <ele>41.7</ele>
        <time>2013-12-31T12:47:08Z</time>
      </trkpt>
      <trkpt lat="59.242453" lon="17.931731">
        <ele>41.8</ele>
        <time>2013-12-31T12:47:11Z</time>
      </trkpt>
      <trkpt lat="59.242524" lon="17.931741">
        <ele>41.9</ele>
        <time>2013-12-31T12:47:16Z</time>
      </trkpt>
      <trkpt lat="59.242598" lon="17.931749">
        <ele>42.5</ele>
        <time>2013-12-31T12:47:21Z</time>
      </trkpt>
      <trkpt lat="59.242673" lon="17.931758">
        <ele>42.9</ele>
        <time>2013-12-31T12:47:26Z</time>
      </trkpt>
      <trkpt lat="59.24275" lon="17.931765">
        <ele>43.4</ele>
        <time>2013-12-31T12:47:27Z</time>
      </trkpt>
      <trkpt lat="59.242827" lon="17.931772">
        <ele>43.8</ele>
        <time>2013-12-31T12:47:31Z</time>
      </trkpt>
      <trkpt lat="59.242908" lon="17.931778">
        <ele>44.3</ele>
        <time>2013-12-31T12:47:35Z</time>
      </trkpt>
      <trkpt lat="59.242988" lon="17.931783">
        <ele>44.7</ele>
        <time>2013-12-31T12:47:40Z</time>
      </trkpt>
      <trkpt lat="59.243054" lon="17.931617">
        <ele>45.2</ele>
        <time>2013-12-31T12:47:41Z</time>
      </trkpt>
      <trkpt lat="59.243121" lon="17.931451">
        <ele>45.6</ele>
        <time>2013-12-31T12:47:42Z</time>
      </trkpt>
      <trkpt lat="59.24319" lon="17.931283">
        <ele>46.1</ele>
        <time>2013-12-31T12:47:45Z</time>
      </trkpt>
      <trkpt lat="59.24326" lon="17.931115">
        <ele>46.5</ele>
        <time>2013-12-31T12:47:49Z</time>
      </trkpt>
      <trkpt lat="59.243332" lon="17.930947">
        <ele>47</ele>
        <time>2013-12-31T12:47:54Z</time>
      </trkpt>
      <trkpt lat="59.243405" lon="17.930777">
        <ele>47</ele>
        <time>2013-12-31T12:47:55Z</time>
      </trkpt>
      <trkpt lat="59.24348" lon="17.930607">
        <ele>47</ele>
        <time>2013-12-31T12:47:59Z</time>
      </trkpt>
      <trkpt lat="59.243557" lon="17.930435">
        <ele>47</ele>
        <time>2013-12-31T12:48:04Z</time>
      </trkpt>
      <trkpt lat="59.243588" lon="17.930423">
        <ele>47</ele>
        <time>2013-12-31T12:48:06Z</time>
      </trkpt>
      <trkpt lat="59.243625" lon="17.930428">
        <ele>47.3</ele>
        <time>2013-12-31T12:48:08Z</time>
      </trkpt>
      <trkpt lat="59.243645" lon="17.930452">
        <ele>47.5</ele>
        <time>2013-12-31T12:48:09Z</time>
      </trkpt>
      <trkpt lat="59.243679" lon="17.930526">
        <ele>47.8</ele>
        <time>2013-12-31T12:48:11Z</time>
      </trkpt>
      <trkpt lat="59.243736" lon="17.930638">
        <ele>48.1</ele>
        <time>2013-12-31T12:48:14Z</time>
      </trkpt>
      <trkpt lat="59.24379" lon="17.930743">
        <ele>48.6</ele>
        <time>2013-12-31T12:48:15Z</time>
      </trkpt>
      <trkpt lat="59.243885" lon="17.930879">
        <ele>48.9</ele>
        <time>2013-12-31T12:48:18Z</time>
      </trkpt>
      <trkpt lat="59.243949" lon="17.930927">
        <ele>49.2</ele>
        <time>2013-12-31T12:48:20Z</time>
      </trkpt>
      <trkpt lat="59.244024" lon="17.931005">
        <ele>50</ele>
        <time>2013-12-31T12:48:23Z</time>
      </trkpt>
      <trkpt lat="59.244155" lon="17.931111">
        <ele>50.8</ele>
        <time>2013-12-31T12:48:28Z</time>
      </trkpt>
      <trkpt lat="59.2443" lon="17.931215">
        <ele>51.6</ele>
        <time>2013-12-31T12:48:33Z</time>
      </trkpt>
      <trkpt lat="59.24444" lon="17.931313">
        <ele>52</ele>
        <time>2013-12-31T12:48:38Z</time>
      </trkpt>
      <trkpt lat="59.244546" lon="17.931444">
        <ele>52.4</ele>
        <time>2013-12-31T12:48:42Z</time>
      </trkpt>
      <trkpt lat="59.244669" lon="17.931605">
        <ele>52.7</ele>
        <time>2013-12-31T12:48:47Z</time>
      </trkpt>
      <trkpt lat="59.244772" lon="17.93177">
        <ele>53.1</ele>
        <time>2013-12-31T12:48:52Z</time>
      </trkpt>
      <trkpt lat="59.244882" lon="17.931943">
        <ele>53.3</ele>
        <time>2013-12-31T12:48:57Z</time>
      </trkpt>
      <trkpt lat="59.244978" lon="17.932173">
        <ele>53.5</ele>
        <time>2013-12-31T12:49:02Z</time>
      </trkpt>
      <trkpt lat="59.24512" lon="17.93244">
        <ele>54.5</ele>
        <time>2013-12-31T12:49:07Z</time>
      </trkpt>
      <trkpt lat="59.245246" lon="17.932781">
        <ele>55.5</ele>
        <time>2013-12-31T12:49:12Z</time>
      </trkpt>
      <trkpt lat="59.245273" lon="17.932863">
        <ele>55.9</ele>
        <time>2013-12-31T12:49:13Z</time>
      </trkpt>
      <trkpt lat="59.245347" lon="17.93305">
        <ele>56.3</ele>
        <time>2013-12-31T12:49:16Z</time>
      </trkpt>
      <trkpt lat="59.245383" lon="17.933105">
        <ele>56.6</ele>
        <time>2013-12-31T12:49:17Z</time>
      </trkpt>
      <trkpt lat="59.245492" lon="17.933349">
        <ele>57.2</ele>
        <time>2013-12-31T12:49:21Z</time>
      </trkpt>
      <trkpt lat="59.245618" lon="17.933589">
        <ele>58.3</ele>
        <time>2013-12-31T12:49:26Z</time>
      </trkpt>
      <trkpt lat="59.245733" lon="17.933766">
        <ele>58.8</ele>
        <time>2013-12-31T12:49:30Z</time>
      </trkpt>
      <trkpt lat="59.245847" lon="17.933835">
        <ele>59.5</ele>
        <time>2013-12-31T12:49:34Z</time>
      </trkpt>
      <trkpt lat="59.245927" lon="17.933902">
        <ele>61</ele>
        <time>2013-12-31T12:49:37Z</time>
      </trkpt>
      <trkpt lat="59.245952" lon="17.933937">
        <ele>61.2</ele>
        <time>2013-12-31T12:49:38Z</time>
      </trkpt>
      <trkpt lat="59.245995" lon="17.93398">
        <ele>61.4</ele>
        <time>2013-12-31T12:49:40Z</time>
      </trkpt>
      <trkpt lat="59.246044" lon="17.934033">
        <ele>61.5</ele>
        <time>2013-12-31T12:49:42Z</time>
      </trkpt>
      <trkpt lat="59.246153" lon="17.934208">
        <ele>61.8</ele>
        <time>2013-12-31T12:49:46Z</time>
      </trkpt>
      <trkpt lat="59.246295" lon="17.934486">
        <ele>62.1</ele>
        <time>2013-12-31T12:49:51Z</time>
      </trkpt>
      <trkpt lat="59.246426" lon="17.934778">
        <ele>62.4</ele>
        <time>2013-12-31T12:49:56Z</time>
      </trkpt>
      <trkpt lat="59.246463" lon="17.934852">
        <ele>62.5</ele>
        <time>2013-12-31T12:49:57Z</time>
      </trkpt>
      <trkpt lat="59.246533" lon="17.935056">
        <ele>62.7</ele>
        <time>2013-12-31T12:50:00Z</time>
      </trkpt>
      <trkpt lat="59.246545" lon="17.935132">
        <ele>62.9</ele>
        <time>2013-12-31T12:50:01Z</time>
      </trkpt>
      <trkpt lat="59.246586" lon="17.935346">
        <ele>63.1</ele>
        <time>2013-12-31T12:50:04Z</time>
      </trkpt>
      <trkpt lat="59.246611" lon="17.935492">
        <ele>62.5</ele>
        <time>2013-12-31T12:50:06Z</time>
      </trkpt>
      <trkpt lat="59.246658" lon="17.935748">
        <ele>62.3</ele>
        <time>2013-12-31T12:50:10Z</time>
      </trkpt>
      <trkpt lat="59.246672" lon="17.935809">
        <ele>62.1</ele>
        <time>2013-12-31T12:50:11Z</time>
      </trkpt>
      <trkpt lat="59.24671" lon="17.936036">
        <ele>61.9</ele>
        <time>2013-12-31T12:50:15Z</time>
      </trkpt>
      <trkpt lat="59.24678" lon="17.936297">
        <ele>61.7</ele>
        <time>2013-12-31T12:50:19Z</time>
      </trkpt>
      <trkpt lat="59.246881" lon="17.936657">
        <ele>61.5</ele>
        <time>2013-12-31T12:50:25Z</time>
      </trkpt>
      <trkpt lat="59.246886" lon="17.937011">
        <ele>61.4</ele>
        <time>2013-12-31T12:50:30Z</time>
      </trkpt>
      <trkpt lat="59.246896" lon="17.937274">
        <ele>61.3</ele>
        <time>2013-12-31T12:50:35Z</time>
      </trkpt>
      <trkpt lat="59.246925" lon="17.937625">
        <ele>61.2</ele>
        <time>2013-12-31T12:50:40Z</time>
      </trkpt>
      <trkpt lat="59.246906" lon="17.937907">
        <ele>61.1</ele>
        <time>2013-12-31T12:50:44Z</time>
      </trkpt>
      <trkpt lat="59.246873" lon="17.938398">
        <ele>61.3</ele>
        <time>2013-12-31T12:50:49Z</time>
      </trkpt>
      <trkpt lat="59.246878" lon="17.938511">
        <ele>61.5</ele>
        <time>2013-12-31T12:50:50Z</time>
      </trkpt>
      <trkpt lat="59.246908" lon="17.938742">
        <ele>61.8</ele>
        <time>2013-12-31T12:50:52Z</time>
      </trkpt>
      <trkpt lat="59.247022" lon="17.939039">
        <ele>62.1</ele>
        <time>2013-12-31T12:50:56Z</time>
      </trkpt>
      <trkpt lat="59.247057" lon="17.939096">
        <ele>62.2</ele>
        <time>2013-12-31T12:50:57Z</time>
      </trkpt>
      <trkpt lat="59.247158" lon="17.939243">
        <ele>62.3</ele>
        <time>2013-12-31T12:51:00Z</time>
      </trkpt>
      <trkpt lat="59.247207" lon="17.939341">
        <ele>62.4</ele>
        <time>2013-12-31T12:51:02Z</time>
      </trkpt>
      <trkpt lat="59.247259" lon="17.939436">
        <ele>62.5</ele>
        <time>2013-12-31T12:51:04Z</time>
      </trkpt>
      <trkpt lat="59.247303" lon="17.939614">
        <ele>62.5</ele>
        <time>2013-12-31T12:51:07Z</time>
      </trkpt>
      <trkpt lat="59.247361" lon="17.93989">
        <ele>62.6</ele>
        <time>2013-12-31T12:51:12Z</time>
      </trkpt>
      <trkpt lat="59.247435" lon="17.940174">
        <ele>62.6</ele>
        <time>2013-12-31T12:51:17Z</time>
      </trkpt>
      <trkpt lat="59.247501" lon="17.940448">
        <ele>62.4</ele>
        <time>2013-12-31T12:51:22Z</time>
      </trkpt>
      <trkpt lat="59.247574" lon="17.940698">
        <ele>62.1</ele>
        <time>2013-12-31T12:51:26Z</time>
      </trkpt>
      <trkpt lat="59.247691" lon="17.941143">
        <ele>61.8</ele>
        <time>2013-12-31T12:51:32Z</time>
      </trkpt>
      <trkpt lat="59.247735" lon="17.941264">
        <ele>61.6</ele>
        <time>2013-12-31T12:51:33Z</time>
      </trkpt>
      <trkpt lat="59.24776" lon="17.941397">
        <ele>61.6</ele>
        <time>2013-12-31T12:51:35Z</time>
      </trkpt>
      <trkpt lat="59.247766" lon="17.941457">
        <ele>61.6</ele>
        <time>2013-12-31T12:51:36Z</time>
      </trkpt>
      <trkpt lat="59.247737" lon="17.941765">
        <ele>61.7</ele>
        <time>2013-12-31T12:51:40Z</time>
      </trkpt>
      <trkpt lat="59.247681" lon="17.942079">
        <ele>61.8</ele>
        <time>2013-12-31T12:51:45Z</time>
      </trkpt>
      <trkpt lat="59.247685" lon="17.942201">
        <ele>61.9</ele>
        <time>2013-12-31T12:51:47Z</time>
      </trkpt>
      <trkpt lat="59.247647" lon="17.942333">
        <ele>61.9</ele>
        <time>2013-12-31T12:51:49Z</time>
      </trkpt>
      <trkpt lat="59.247595" lon="17.942657">
        <ele>62</ele>
        <time>2013-12-31T12:51:54Z</time>
      </trkpt>
      <trkpt lat="59.247559" lon="17.942935">
        <ele>62.1</ele>
        <time>2013-12-31T12:51:58Z</time>
      </trkpt>
      <trkpt lat="59.247591" lon="17.943255">
        <ele>62.2</ele>
        <time>2013-12-31T12:52:03Z</time>
      </trkpt>
      <trkpt lat="59.247642" lon="17.943508">
        <ele>62.5</ele>
        <time>2013-12-31T12:52:07Z</time>
      </trkpt>
      <trkpt lat="59.247694" lon="17.943788">
        <ele>62.6</ele>
        <time>2013-12-31T12:52:11Z</time>
      </trkpt>
      <trkpt lat="59.247804" lon="17.944079">
        <ele>62.8</ele>
        <time>2013-12-31T12:52:16Z</time>
      </trkpt>
      <trkpt lat="59.247921" lon="17.944343">
        <ele>62.9</ele>
        <time>2013-12-31T12:52:21Z</time>
      </trkpt>
      <trkpt lat="59.247963" lon="17.94457">
        <ele>62.9</ele>
        <time>2013-12-31T12:52:25Z</time>
      </trkpt>
      <trkpt lat="59.248006" lon="17.944864">
        <ele>62.9</ele>
        <time>2013-12-31T12:52:30Z</time>
      </trkpt>
      <trkpt lat="59.248015" lon="17.945132">
        <ele>62.9</ele>
        <time>2013-12-31T12:52:34Z</time>
      </trkpt>
      <trkpt lat="59.248065" lon="17.945406">
        <ele>63</ele>
        <time>2013-12-31T12:52:39Z</time>
      </trkpt>
      <trkpt lat="59.248118" lon="17.945663">
        <ele>63.1</ele>
        <time>2013-12-31T12:52:42Z</time>
      </trkpt>
      <trkpt lat="59.248257" lon="17.945879">
        <ele>63.2</ele>
        <time>2013-12-31T12:52:47Z</time>
      </trkpt>
      <trkpt lat="59.248442" lon="17.946053">
        <ele>63</ele>
        <time>2013-12-31T12:52:51Z</time>
      </trkpt>
      <trkpt lat="59.248543" lon="17.946118">
        <ele>62.6</ele>
        <time>2013-12-31T12:52:53Z</time>
      </trkpt>
      <trkpt lat="59.248635" lon="17.946143">
        <ele>62.3</ele>
        <time>2013-12-31T12:52:55Z</time>
      </trkpt>
      <trkpt lat="59.248678" lon="17.946183">
        <ele>61.9</ele>
        <time>2013-12-31T12:52:56Z</time>
      </trkpt>
      <trkpt lat="59.248718" lon="17.946234">
        <ele>61.6</ele>
        <time>2013-12-31T12:52:57Z</time>
      </trkpt>
      <trkpt lat="59.248862" lon="17.946453">
        <ele>61.1</ele>
        <time>2013-12-31T12:53:01Z</time>
      </trkpt>
      <trkpt lat="59.24899" lon="17.946641">
        <ele>60.5</ele>
        <time>2013-12-31T12:53:05Z</time>
      </trkpt>
      <trkpt lat="59.249023" lon="17.946684">
        <ele>59.8</ele>
        <time>2013-12-31T12:53:06Z</time>
      </trkpt>
      <trkpt lat="59.249189" lon="17.946908">
        <ele>59.1</ele>
        <time>2013-12-31T12:53:11Z</time>
      </trkpt>
      <trkpt lat="59.249338" lon="17.947101">
        <ele>58.4</ele>
        <time>2013-12-31T12:53:16Z</time>
      </trkpt>
      <trkpt lat="59.249482" lon="17.947301">
        <ele>57.5</ele>
        <time>2013-12-31T12:53:20Z</time>
      </trkpt>
      <trkpt lat="59.249583" lon="17.947462">
        <ele>57</ele>
        <time>2013-12-31T12:53:23Z</time>
      </trkpt>
      <trkpt lat="59.249646" lon="17.947615">
        <ele>56.5</ele>
        <time>2013-12-31T12:53:26Z</time>
      </trkpt>
      <trkpt lat="59.249674" lon="17.947716">
        <ele>55.9</ele>
        <time>2013-12-31T12:53:28Z</time>
      </trkpt>
      <trkpt lat="59.249717" lon="17.947877">
        <ele>55.4</ele>
        <time>2013-12-31T12:53:31Z</time>
      </trkpt>
      <trkpt lat="59.249762" lon="17.948153">
        <ele>54.8</ele>
        <time>2013-12-31T12:53:36Z</time>
      </trkpt>
      <trkpt lat="59.249792" lon="17.948487">
        <ele>54.5</ele>
        <time>2013-12-31T12:53:41Z</time>
      </trkpt>
      <trkpt lat="59.249698" lon="17.948771">
        <ele>54.3</ele>
        <time>2013-12-31T12:53:45Z</time>
      </trkpt>
      <trkpt lat="59.249609" lon="17.949065">
        <ele>54.2</ele>
        <time>2013-12-31T12:53:50Z</time>
      </trkpt>
      <trkpt lat="59.249577" lon="17.949221">
        <ele>54.1</ele>
        <time>2013-12-31T12:53:54Z</time>
      </trkpt>
      <trkpt lat="59.24957" lon="17.949239">
        <ele>54</ele>
        <time>2013-12-31T12:53:55Z</time>
      </trkpt>
      <trkpt lat="59.249514" lon="17.949312">
        <ele>54</ele>
        <time>2013-12-31T12:54:04Z</time>
      </trkpt>
      <trkpt lat="59.249498" lon="17.949315">
        <ele>54</ele>
        <time>2013-12-31T12:54:06Z</time>
      </trkpt>
      <trkpt lat="59.249471" lon="17.94928">
        <ele>54</ele>
        <time>2013-12-31T12:54:08Z</time>
      </trkpt>
      <trkpt lat="59.249387" lon="17.949225">
        <ele>54</ele>
        <time>2013-12-31T12:54:12Z</time>
      </trkpt>
      <trkpt lat="59.249347" lon="17.949214">
        <ele>54</ele>
        <time>2013-12-31T12:54:14Z</time>
      </trkpt>
      <trkpt lat="59.249308" lon="17.949186">
        <ele>54</ele>
        <time>2013-12-31T12:54:16Z</time>
      </trkpt>
      <trkpt lat="59.249302" lon="17.949161">
        <ele>54</ele>
        <time>2013-12-31T12:54:17Z</time>
      </trkpt>
      <trkpt lat="59.249211" lon="17.949272">
        <ele>54</ele>
        <time>2013-12-31T12:55:30Z</time>
      </trkpt>
      <trkpt lat="59.249213" lon="17.94927">
        <ele>54</ele>
        <time>2013-12-31T12:55:31Z</time>
      </trkpt>
      <trkpt lat="59.249213" lon="17.949259">
        <ele>54</ele>
        <time>2013-12-31T12:55:36Z</time>
      </trkpt>
      <trkpt lat="59.249213" lon="17.949219">
        <ele>54</ele>
        <time>2013-12-31T12:55:51Z</time>
      </trkpt>
      <trkpt lat="59.249112" lon="17.949176">
        <ele>54</ele>
        <time>2013-12-31T12:59:42Z</time>
      </trkpt>
      <trkpt lat="59.249138" lon="17.949152">
        <ele>54</ele>
        <time>2013-12-31T12:59:43Z</time>
      </trkpt>
      <trkpt lat="59.249197" lon="17.949049">
        <ele>54</ele>
        <time>2013-12-31T12:59:46Z</time>
      </trkpt>
      <trkpt lat="59.24926" lon="17.94891">
        <ele>54.3</ele>
        <time>2013-12-31T12:59:49Z</time>
      </trkpt>
      <trkpt lat="59.249309" lon="17.948697">
        <ele>54.6</ele>
        <time>2013-12-31T12:59:53Z</time>
      </trkpt>
      <trkpt lat="59.249328" lon="17.948453">
        <ele>54.5</ele>
        <time>2013-12-31T12:59:57Z</time>
      </trkpt>
      <trkpt lat="59.249266" lon="17.948172">
        <ele>54.8</ele>
        <time>2013-12-31T13:00:01Z</time>
      </trkpt>
      <trkpt lat="59.249173" lon="17.948012">
        <ele>55.1</ele>
        <time>2013-12-31T13:00:05Z</time>
      </trkpt>
      <trkpt lat="59.249059" lon="17.947922">
        <ele>55.4</ele>
        <time>2013-12-31T13:00:09Z</time>
      </trkpt>
      <trkpt lat="59.248925" lon="17.947922">
        <ele>55.5</ele>
        <time>2013-12-31T13:00:13Z</time>
      </trkpt>
      <trkpt lat="59.248794" lon="17.948038">
        <ele>55.5</ele>
        <time>2013-12-31T13:00:17Z</time>
      </trkpt>
      <trkpt lat="59.248628" lon="17.94827">
        <ele>55.6</ele>
        <time>2013-12-31T13:00:22Z</time>
      </trkpt>
      <trkpt lat="59.248449" lon="17.948521">
        <ele>55.7</ele>
        <time>2013-12-31T13:00:27Z</time>
      </trkpt>
      <trkpt lat="59.248265" lon="17.948745">
        <ele>55.8</ele>
        <time>2013-12-31T13:00:32Z</time>
      </trkpt>
      <trkpt lat="59.248087" lon="17.948942">
        <ele>55.6</ele>
        <time>2013-12-31T13:00:37Z</time>
      </trkpt>
      <trkpt lat="59.24805" lon="17.949037">
        <ele>55.5</ele>
        <time>2013-12-31T13:00:40Z</time>
      </trkpt>
      <trkpt lat="59.248028" lon="17.949098">
        <ele>55.5</ele>
        <time>2013-12-31T13:00:42Z</time>
      </trkpt>
      <trkpt lat="59.248021" lon="17.949141">
        <ele>55.1</ele>
        <time>2013-12-31T13:00:43Z</time>
      </trkpt>
      <trkpt lat="59.248019" lon="17.949168">
        <ele>54.6</ele>
        <time>2013-12-31T13:00:44Z</time>
      </trkpt>
      <trkpt lat="59.248011" lon="17.949355">
        <ele>54.2</ele>
        <time>2013-12-31T13:00:49Z</time>
      </trkpt>
      <trkpt lat="59.248015" lon="17.949501">
        <ele>53.9</ele>
        <time>2013-12-31T13:00:54Z</time>
      </trkpt>
      <trkpt lat="59.24804" lon="17.949613">
        <ele>53.6</ele>
        <time>2013-12-31T13:00:58Z</time>
      </trkpt>
      <trkpt lat="59.248085" lon="17.949743">
        <ele>53.4</ele>
        <time>2013-12-31T13:01:02Z</time>
      </trkpt>
      <trkpt lat="59.248164" lon="17.949874">
        <ele>53.1</ele>
        <time>2013-12-31T13:01:06Z</time>
      </trkpt>
      <trkpt lat="59.248229" lon="17.949941">
        <ele>52.8</ele>
        <time>2013-12-31T13:01:10Z</time>
      </trkpt>
      <trkpt lat="59.248242" lon="17.949937">
        <ele>52.7</ele>
        <time>2013-12-31T13:01:11Z</time>
      </trkpt>
      <trkpt lat="59.248309" lon="17.949958">
        <ele>52.6</ele>
        <time>2013-12-31T13:01:14Z</time>
      </trkpt>
      <trkpt lat="59.248431" lon="17.949928">
        <ele>52.5</ele>
        <time>2013-12-31T13:01:19Z</time>
      </trkpt>
      <trkpt lat="59.248565" lon="17.949826">
        <ele>52.7</ele>
        <time>2013-12-31T13:01:23Z</time>
      </trkpt>
      <trkpt lat="59.248713" lon="17.949655">
        <ele>52.9</ele>
        <time>2013-12-31T13:01:27Z</time>
      </trkpt>
      <trkpt lat="59.248928" lon="17.949476">
        <ele>53.1</ele>
        <time>2013-12-31T13:01:32Z</time>
      </trkpt>
      <trkpt lat="59.249085" lon="17.949289">
        <ele>53.3</ele>
        <time>2013-12-31T13:01:36Z</time>
      </trkpt>
      <trkpt lat="59.249275" lon="17.949053">
        <ele>53.5</ele>
        <time>2013-12-31T13:01:41Z</time>
      </trkpt>
      <trkpt lat="59.249302" lon="17.949002">
        <ele>53.6</ele>
        <time>2013-12-31T13:01:42Z</time>
      </trkpt>
      <trkpt lat="59.249343" lon="17.948865">
        <ele>53.8</ele>
        <time>2013-12-31T13:01:45Z</time>
      </trkpt>
      <trkpt lat="59.249355" lon="17.948779">
        <ele>54</ele>
        <time>2013-12-31T13:01:47Z</time>
      </trkpt>
      <trkpt lat="59.249368" lon="17.948659">
        <ele>54</ele>
        <time>2013-12-31T13:01:50Z</time>
      </trkpt>
      <trkpt lat="59.249356" lon="17.948472">
        <ele>54.3</ele>
        <time>2013-12-31T13:01:55Z</time>
      </trkpt>
      <trkpt lat="59.24934" lon="17.94837">
        <ele>54.5</ele>
        <time>2013-12-31T13:01:58Z</time>
      </trkpt>
      <trkpt lat="59.249331" lon="17.948321">
        <ele>54.8</ele>
        <time>2013-12-31T13:01:59Z</time>
      </trkpt>
      <trkpt lat="59.249287" lon="17.948151">
        <ele>55.1</ele>
        <time>2013-12-31T13:02:04Z</time>
      </trkpt>
      <trkpt lat="59.249225" lon="17.948028">
        <ele>55.1</ele>
        <time>2013-12-31T13:02:08Z</time>
      </trkpt>
      <trkpt lat="59.249171" lon="17.947944">
        <ele>55.4</ele>
        <time>2013-12-31T13:02:11Z</time>
      </trkpt>
      <trkpt lat="59.249107" lon="17.947905">
        <ele>55.6</ele>
        <time>2013-12-31T13:02:16Z</time>
      </trkpt>
      <trkpt lat="59.249018" lon="17.947881">
        <ele>55.9</ele>
        <time>2013-12-31T13:02:21Z</time>
      </trkpt>
      <trkpt lat="59.248913" lon="17.947914">
        <ele>56.2</ele>
        <time>2013-12-31T13:02:26Z</time>
      </trkpt>
      <trkpt lat="59.248812" lon="17.948055">
        <ele>56.5</ele>
        <time>2013-12-31T13:02:30Z</time>
      </trkpt>
      <trkpt lat="59.248628" lon="17.948256">
        <ele>56.7</ele>
        <time>2013-12-31T13:02:35Z</time>
      </trkpt>
      <trkpt lat="59.248407" lon="17.948451">
        <ele>56.5</ele>
        <time>2013-12-31T13:02:40Z</time>
      </trkpt>
      <trkpt lat="59.248368" lon="17.948498">
        <ele>56.4</ele>
        <time>2013-12-31T13:02:41Z</time>
      </trkpt>
      <trkpt lat="59.248246" lon="17.94864">
        <ele>56.2</ele>
        <time>2013-12-31T13:02:44Z</time>
      </trkpt>
      <trkpt lat="59.24821" lon="17.94868">
        <ele>56</ele>
        <time>2013-12-31T13:02:45Z</time>
      </trkpt>
      <trkpt lat="59.248108" lon="17.94881">
        <ele>56.1</ele>
        <time>2013-12-31T13:02:48Z</time>
      </trkpt>
      <trkpt lat="59.248079" lon="17.948854">
        <ele>55.9</ele>
        <time>2013-12-31T13:02:49Z</time>
      </trkpt>
      <trkpt lat="59.248054" lon="17.948916">
        <ele>55.7</ele>
        <time>2013-12-31T13:02:50Z</time>
      </trkpt>
      <trkpt lat="59.248029" lon="17.948996">
        <ele>55.3</ele>
        <time>2013-12-31T13:02:52Z</time>
      </trkpt>
      <trkpt lat="59.247994" lon="17.949143">
        <ele>54.8</ele>
        <time>2013-12-31T13:02:57Z</time>
      </trkpt>
      <trkpt lat="59.247997" lon="17.949276">
        <ele>54.4</ele>
        <time>2013-12-31T13:03:01Z</time>
      </trkpt>
      <trkpt lat="59.248001" lon="17.949454">
        <ele>53.9</ele>
        <time>2013-12-31T13:03:05Z</time>
      </trkpt>
      <trkpt lat="59.248023" lon="17.949516">
        <ele>53.6</ele>
        <time>2013-12-31T13:03:07Z</time>
      </trkpt>
      <trkpt lat="59.248063" lon="17.949675">
        <ele>53.4</ele>
        <time>2013-12-31T13:03:12Z</time>
      </trkpt>
      <trkpt lat="59.248117" lon="17.949816">
        <ele>53.1</ele>
        <time>2013-12-31T13:03:16Z</time>
      </trkpt>
      <trkpt lat="59.24817" lon="17.949891">
        <ele>52.8</ele>
        <time>2013-12-31T13:03:20Z</time>
      </trkpt>
      <trkpt lat="59.24824" lon="17.949959">
        <ele>52.5</ele>
        <time>2013-12-31T13:03:25Z</time>
      </trkpt>
      <trkpt lat="59.24831" lon="17.950011">
        <ele>52.5</ele>
        <time>2013-12-31T13:03:29Z</time>
      </trkpt>
      <trkpt lat="59.248388" lon="17.95">
        <ele>52.4</ele>
        <time>2013-12-31T13:03:33Z</time>
      </trkpt>
      <trkpt lat="59.248425" lon="17.949973">
        <ele>52.5</ele>
        <time>2013-12-31T13:03:35Z</time>
      </trkpt>
      <trkpt lat="59.248482" lon="17.949926">
        <ele>52.7</ele>
        <time>2013-12-31T13:03:37Z</time>
      </trkpt>
      <trkpt lat="59.24864" lon="17.949714">
        <ele>52.9</ele>
        <time>2013-12-31T13:03:42Z</time>
      </trkpt>
      <trkpt lat="59.248856" lon="17.949478">
        <ele>53.1</ele>
        <time>2013-12-31T13:03:48Z</time>
      </trkpt>
      <trkpt lat="59.248972" lon="17.949357">
        <ele>53.3</ele>
        <time>2013-12-31T13:03:51Z</time>
      </trkpt>
      <trkpt lat="59.249007" lon="17.949317">
        <ele>53.5</ele>
        <time>2013-12-31T13:03:52Z</time>
      </trkpt>
      <trkpt lat="59.24912" lon="17.94919">
        <ele>53.6</ele>
        <time>2013-12-31T13:03:55Z</time>
      </trkpt>
      <trkpt lat="59.249199" lon="17.949128">
        <ele>53.8</ele>
        <time>2013-12-31T13:03:57Z</time>
      </trkpt>
      <trkpt lat="59.249232" lon="17.949086">
        <ele>54</ele>
        <time>2013-12-31T13:03:58Z</time>
      </trkpt>
      <trkpt lat="59.249287" lon="17.948992">
        <ele>54</ele>
        <time>2013-12-31T13:04:00Z</time>
      </trkpt>
      <trkpt lat="59.249303" lon="17.948961">
        <ele>54</ele>
        <time>2013-12-31T13:04:01Z</time>
      </trkpt>
      <trkpt lat="59.249344" lon="17.948802">
        <ele>54</ele>
        <time>2013-12-31T13:04:05Z</time>
      </trkpt>
      <trkpt lat="59.249364" lon="17.948648">
        <ele>54</ele>
        <time>2013-12-31T13:04:09Z</time>
      </trkpt>
      <trkpt lat="59.24936" lon="17.948568">
        <ele>54</ele>
        <time>2013-12-31T13:04:12Z</time>
      </trkpt>
      <trkpt lat="59.24936" lon="17.948538">
        <ele>54.3</ele>
        <time>2013-12-31T13:04:13Z</time>
      </trkpt>
      <trkpt lat="59.24935" lon="17.9484">
        <ele>54.5</ele>
        <time>2013-12-31T13:04:17Z</time>
      </trkpt>
      <trkpt lat="59.249326" lon="17.948237">
        <ele>54.8</ele>
        <time>2013-12-31T13:04:22Z</time>
      </trkpt>
      <trkpt lat="59.249272" lon="17.948093">
        <ele>55.1</ele>
        <time>2013-12-31T13:04:26Z</time>
      </trkpt>
      <trkpt lat="59.24921" lon="17.948014">
        <ele>55.4</ele>
        <time>2013-12-31T13:04:31Z</time>
      </trkpt>
      <trkpt lat="59.249143" lon="17.94794">
        <ele>55.6</ele>
        <time>2013-12-31T13:04:35Z</time>
      </trkpt>
      <trkpt lat="59.249082" lon="17.94789">
        <ele>55.9</ele>
        <time>2013-12-31T13:04:39Z</time>
      </trkpt>
      <trkpt lat="59.248999" lon="17.947881">
        <ele>56.2</ele>
        <time>2013-12-31T13:04:44Z</time>
      </trkpt>
      <trkpt lat="59.248942" lon="17.947897">
        <ele>56.5</ele>
        <time>2013-12-31T13:04:48Z</time>
      </trkpt>
      <trkpt lat="59.248881" lon="17.947948">
        <ele>56.7</ele>
        <time>2013-12-31T13:04:51Z</time>
      </trkpt>
      <trkpt lat="59.248854" lon="17.947978">
        <ele>57</ele>
        <time>2013-12-31T13:04:52Z</time>
      </trkpt>
      <trkpt lat="59.248705" lon="17.94813">
        <ele>57</ele>
        <time>2013-12-31T13:04:56Z</time>
      </trkpt>
      <trkpt lat="59.24857" lon="17.948317">
        <ele>56.8</ele>
        <time>2013-12-31T13:05:00Z</time>
      </trkpt>
      <trkpt lat="59.248537" lon="17.94836">
        <ele>56.6</ele>
        <time>2013-12-31T13:05:01Z</time>
      </trkpt>
      <trkpt lat="59.248356" lon="17.948561">
        <ele>56.5</ele>
        <time>2013-12-31T13:05:06Z</time>
      </trkpt>
      <trkpt lat="59.248137" lon="17.948785">
        <ele>56.3</ele>
        <time>2013-12-31T13:05:12Z</time>
      </trkpt>
      <trkpt lat="59.248116" lon="17.94881">
        <ele>56.1</ele>
        <time>2013-12-31T13:05:13Z</time>
      </trkpt>
      <trkpt lat="59.248054" lon="17.948939">
        <ele>56</ele>
        <time>2013-12-31T13:05:17Z</time>
      </trkpt>
      <trkpt lat="59.248015" lon="17.949096">
        <ele>55.9</ele>
        <time>2013-12-31T13:05:22Z</time>
      </trkpt>
      <trkpt lat="59.247996" lon="17.949225">
        <ele>55.8</ele>
        <time>2013-12-31T13:05:27Z</time>
      </trkpt>
      <trkpt lat="59.247994" lon="17.949235">
        <ele>55.6</ele>
        <time>2013-12-31T13:05:28Z</time>
      </trkpt>
      <trkpt lat="59.248003" lon="17.949238">
        <ele>55.3</ele>
        <time>2013-12-31T13:05:32Z</time>
      </trkpt>
      <trkpt lat="59.248013" lon="17.949247">
        <ele>54</ele>
        <time>2013-12-31T13:05:43Z</time>
      </trkpt>
      <trkpt lat="59.248013" lon="17.949298">
        <ele>53.7</ele>
        <time>2013-12-31T13:05:45Z</time>
      </trkpt>
      <trkpt lat="59.248015" lon="17.94937">
        <ele>53.5</ele>
        <time>2013-12-31T13:05:47Z</time>
      </trkpt>
      <trkpt lat="59.248039" lon="17.949544">
        <ele>53.3</ele>
        <time>2013-12-31T13:05:51Z</time>
      </trkpt>
      <trkpt lat="59.248091" lon="17.949685">
        <ele>53.2</ele>
        <time>2013-12-31T13:05:55Z</time>
      </trkpt>
      <trkpt lat="59.24818" lon="17.949865">
        <ele>53.3</ele>
        <time>2013-12-31T13:06:00Z</time>
      </trkpt>
      <trkpt lat="59.24826" lon="17.949933">
        <ele>53.2</ele>
        <time>2013-12-31T13:06:04Z</time>
      </trkpt>
      <trkpt lat="59.248373" lon="17.949968">
        <ele>53.1</ele>
        <time>2013-12-31T13:06:09Z</time>
      </trkpt>
      <trkpt lat="59.248519" lon="17.94987">
        <ele>53</ele>
        <time>2013-12-31T13:06:14Z</time>
      </trkpt>
      <trkpt lat="59.248663" lon="17.949685">
        <ele>52.9</ele>
        <time>2013-12-31T13:06:18Z</time>
      </trkpt>
      <trkpt lat="59.248903" lon="17.949452">
        <ele>53.1</ele>
        <time>2013-12-31T13:06:24Z</time>
      </trkpt>
      <trkpt lat="59.24894" lon="17.949405">
        <ele>53.3</ele>
        <time>2013-12-31T13:06:25Z</time>
      </trkpt>
      <trkpt lat="59.249064" lon="17.94926">
        <ele>53.5</ele>
        <time>2013-12-31T13:06:28Z</time>
      </trkpt>
      <trkpt lat="59.249178" lon="17.949143">
        <ele>53.6</ele>
        <time>2013-12-31T13:06:31Z</time>
      </trkpt>
      <trkpt lat="59.249257" lon="17.949051">
        <ele>53.8</ele>
        <time>2013-12-31T13:06:33Z</time>
      </trkpt>
      <trkpt lat="59.249324" lon="17.948976">
        <ele>54</ele>
        <time>2013-12-31T13:06:35Z</time>
      </trkpt>
      <trkpt lat="59.249368" lon="17.948912">
        <ele>54</ele>
        <time>2013-12-31T13:06:37Z</time>
      </trkpt>
      <trkpt lat="59.249401" lon="17.948814">
        <ele>54</ele>
        <time>2013-12-31T13:06:41Z</time>
      </trkpt>
      <trkpt lat="59.24944" lon="17.94879">
        <ele>54</ele>
        <time>2013-12-31T13:06:46Z</time>
      </trkpt>
      <trkpt lat="59.24944" lon="17.948772">
        <ele>54</ele>
        <time>2013-12-31T13:07:01Z</time>
      </trkpt>
      <trkpt lat="59.249437" lon="17.948772">
        <ele>54</ele>
        <time>2013-12-31T13:07:04Z</time>
      </trkpt>
      <trkpt lat="59.249432" lon="17.948772">
        <ele>54</ele>
        <time>2013-12-31T13:07:07Z</time>
      </trkpt>
      <trkpt lat="59.249406" lon="17.948804">
        <ele>54</ele>
        <time>2013-12-31T13:07:11Z</time>
      </trkpt>
      <trkpt lat="59.249397" lon="17.9488">
        <ele>54</ele>
        <time>2013-12-31T13:07:12Z</time>
      </trkpt>
      <trkpt lat="59.249361" lon="17.948677">
        <ele>54.3</ele>
        <time>2013-12-31T13:07:16Z</time>
      </trkpt>
      <trkpt lat="59.249349" lon="17.948528">
        <ele>54.5</ele>
        <time>2013-12-31T13:07:21Z</time>
      </trkpt>
      <trkpt lat="59.249329" lon="17.948348">
        <ele>54.8</ele>
        <time>2013-12-31T13:07:26Z</time>
      </trkpt>
      <trkpt lat="59.249286" lon="17.94819">
        <ele>55.1</ele>
        <time>2013-12-31T13:07:31Z</time>
      </trkpt>
      <trkpt lat="59.249226" lon="17.948045">
        <ele>55.4</ele>
        <time>2013-12-31T13:07:35Z</time>
      </trkpt>
      <trkpt lat="59.249161" lon="17.947967">
        <ele>55.6</ele>
        <time>2013-12-31T13:07:39Z</time>
      </trkpt>
      <trkpt lat="59.24907" lon="17.947902">
        <ele>55.9</ele>
        <time>2013-12-31T13:07:43Z</time>
      </trkpt>
      <trkpt lat="59.248981" lon="17.947895">
        <ele>56.2</ele>
        <time>2013-12-31T13:07:47Z</time>
      </trkpt>
      <trkpt lat="59.248859" lon="17.947953">
        <ele>56.5</ele>
        <time>2013-12-31T13:07:52Z</time>
      </trkpt>
      <trkpt lat="59.248779" lon="17.948066">
        <ele>56.7</ele>
        <time>2013-12-31T13:07:55Z</time>
      </trkpt>
      <trkpt lat="59.248686" lon="17.948172">
        <ele>57</ele>
        <time>2013-12-31T13:07:59Z</time>
      </trkpt>
      <trkpt lat="59.248617" lon="17.94825">
        <ele>57</ele>
        <time>2013-12-31T13:08:03Z</time>
      </trkpt>
      <trkpt lat="59.248529" lon="17.948343">
        <ele>56.8</ele>
        <time>2013-12-31T13:08:07Z</time>
      </trkpt>
      <trkpt lat="59.248448" lon="17.948442">
        <ele>56.6</ele>
        <time>2013-12-31T13:08:11Z</time>
      </trkpt>
      <trkpt lat="59.248353" lon="17.948552">
        <ele>56.5</ele>
        <time>2013-12-31T13:08:15Z</time>
      </trkpt>
      <trkpt lat="59.248226" lon="17.94868">
        <ele>56.3</ele>
        <time>2013-12-31T13:08:20Z</time>
      </trkpt>
      <trkpt lat="59.248129" lon="17.948809">
        <ele>56.1</ele>
        <time>2013-12-31T13:08:25Z</time>
      </trkpt>
      <trkpt lat="59.248065" lon="17.948947">
        <ele>55.6</ele>
        <time>2013-12-31T13:08:29Z</time>
      </trkpt>
      <trkpt lat="59.248037" lon="17.949069">
        <ele>55.2</ele>
        <time>2013-12-31T13:08:33Z</time>
      </trkpt>
      <trkpt lat="59.248011" lon="17.949238">
        <ele>54.7</ele>
        <time>2013-12-31T13:08:37Z</time>
      </trkpt>
      <trkpt lat="59.248008" lon="17.949469">
        <ele>54.3</ele>
        <time>2013-12-31T13:08:42Z</time>
      </trkpt>
      <trkpt lat="59.248047" lon="17.949632">
        <ele>53.8</ele>
        <time>2013-12-31T13:08:46Z</time>
      </trkpt>
      <trkpt lat="59.248098" lon="17.949775">
        <ele>53.4</ele>
        <time>2013-12-31T13:08:50Z</time>
      </trkpt>
      <trkpt lat="59.248111" lon="17.949791">
        <ele>53.1</ele>
        <time>2013-12-31T13:08:51Z</time>
      </trkpt>
      <trkpt lat="59.248147" lon="17.949857">
        <ele>52.8</ele>
        <time>2013-12-31T13:08:53Z</time>
      </trkpt>
      <trkpt lat="59.248163" lon="17.949868">
        <ele>52.5</ele>
        <time>2013-12-31T13:08:54Z</time>
      </trkpt>
      <trkpt lat="59.248221" lon="17.949914">
        <ele>52.5</ele>
        <time>2013-12-31T13:08:57Z</time>
      </trkpt>
      <trkpt lat="59.248317" lon="17.949962">
        <ele>52.5</ele>
        <time>2013-12-31T13:09:00Z</time>
      </trkpt>
      <trkpt lat="59.248398" lon="17.949937">
        <ele>52.7</ele>
        <time>2013-12-31T13:09:04Z</time>
      </trkpt>
      <trkpt lat="59.248499" lon="17.949849">
        <ele>52.9</ele>
        <time>2013-12-31T13:09:09Z</time>
      </trkpt>
      <trkpt lat="59.248582" lon="17.949743">
        <ele>53.1</ele>
        <time>2013-12-31T13:09:13Z</time>
      </trkpt>
      <trkpt lat="59.248669" lon="17.949638">
        <ele>53.3</ele>
        <time>2013-12-31T13:09:19Z</time>
      </trkpt>
      <trkpt lat="59.248752" lon="17.949548">
        <ele>53.5</ele>
        <time>2013-12-31T13:09:23Z</time>
      </trkpt>
      <trkpt lat="59.24885" lon="17.949442">
        <ele>53.6</ele>
        <time>2013-12-31T13:09:28Z</time>
      </trkpt>
      <trkpt lat="59.248923" lon="17.949356">
        <ele>53.8</ele>
        <time>2013-12-31T13:09:32Z</time>
      </trkpt>
      <trkpt lat="59.249026" lon="17.949258">
        <ele>54</ele>
        <time>2013-12-31T13:09:37Z</time>
      </trkpt>
      <trkpt lat="59.249095" lon="17.949194">
        <ele>54.2</ele>
        <time>2013-12-31T13:09:41Z</time>
      </trkpt>
      <trkpt lat="59.249135" lon="17.949163">
        <ele>54.1</ele>
        <time>2013-12-31T13:09:46Z</time>
      </trkpt>
      <trkpt lat="59.249163" lon="17.94925">
        <ele>54</ele>
        <time>2013-12-31T13:10:09Z</time>
      </trkpt>
      <trkpt lat="59.24916" lon="17.949246">
        <ele>54</ele>
        <time>2013-12-31T13:10:12Z</time>
      </trkpt>
      <trkpt lat="59.249154" lon="17.949253">
        <ele>54</ele>
        <time>2013-12-31T13:10:16Z</time>
      </trkpt>
      <trkpt lat="59.249152" lon="17.949241">
        <ele>54</ele>
        <time>2013-12-31T13:10:18Z</time>
      </trkpt>
      <trkpt lat="59.249152" lon="17.949227">
        <ele>54</ele>
        <time>2013-12-31T13:10:32Z</time>
      </trkpt>
      <trkpt lat="59.249151" lon="17.949227">
        <ele>54</ele>
        <time>2013-12-31T13:10:34Z</time>
      </trkpt>
      <trkpt lat="59.249148" lon="17.949225">
        <ele>54</ele>
        <time>2013-12-31T13:10:38Z</time>
      </trkpt>
      <trkpt lat="59.249143" lon="17.949217">
        <ele>54</ele>
        <time>2013-12-31T13:10:43Z</time>
      </trkpt>
      <trkpt lat="59.249174" lon="17.949227">
        <ele>54</ele>
        <time>2013-12-31T13:11:00Z</time>
      </trkpt>
      <trkpt lat="59.249163" lon="17.949257">
        <ele>54</ele>
        <time>2013-12-31T13:11:12Z</time>
      </trkpt>
      <trkpt lat="59.249144" lon="17.949204">
        <ele>54</ele>
        <time>2013-12-31T13:11:19Z</time>
      </trkpt>
      <trkpt lat="59.24915" lon="17.949168">
        <ele>54</ele>
        <time>2013-12-31T13:11:20Z</time>
      </trkpt>
      <trkpt lat="59.249169" lon="17.949062">
        <ele>54</ele>
        <time>2013-12-31T13:11:23Z</time>
      </trkpt>
      <trkpt lat="59.249205" lon="17.949006">
        <ele>54</ele>
        <time>2013-12-31T13:11:25Z</time>
      </trkpt>
      <trkpt lat="59.249253" lon="17.948926">
        <ele>54</ele>
        <time>2013-12-31T13:11:28Z</time>
      </trkpt>
      <trkpt lat="59.249267" lon="17.948888">
        <ele>54</ele>
        <time>2013-12-31T13:11:29Z</time>
      </trkpt>
      <trkpt lat="59.249295" lon="17.948714">
        <ele>54</ele>
        <time>2013-12-31T13:11:33Z</time>
      </trkpt>
      <trkpt lat="59.249313" lon="17.948561">
        <ele>54.3</ele>
        <time>2013-12-31T13:11:36Z</time>
      </trkpt>
      <trkpt lat="59.249306" lon="17.948464">
        <ele>54.5</ele>
        <time>2013-12-31T13:11:38Z</time>
      </trkpt>
      <trkpt lat="59.249283" lon="17.948316">
        <ele>54.8</ele>
        <time>2013-12-31T13:11:41Z</time>
      </trkpt>
      <trkpt lat="59.249274" lon="17.948256">
        <ele>55.1</ele>
        <time>2013-12-31T13:11:42Z</time>
      </trkpt>
      <trkpt lat="59.249213" lon="17.948112">
        <ele>55.4</ele>
        <time>2013-12-31T13:11:46Z</time>
      </trkpt>
      <trkpt lat="59.249124" lon="17.947993">
        <ele>55.6</ele>
        <time>2013-12-31T13:11:50Z</time>
      </trkpt>
      <trkpt lat="59.249022" lon="17.947928">
        <ele>55.9</ele>
        <time>2013-12-31T13:11:54Z</time>
      </trkpt>
      <trkpt lat="59.248911" lon="17.947935">
        <ele>56.2</ele>
        <time>2013-12-31T13:11:58Z</time>
      </trkpt>
      <trkpt lat="59.248772" lon="17.948098">
        <ele>56.5</ele>
        <time>2013-12-31T13:12:03Z</time>
      </trkpt>
      <trkpt lat="59.248611" lon="17.94828">
        <ele>56.7</ele>
        <time>2013-12-31T13:12:07Z</time>
      </trkpt>
      <trkpt lat="59.248445" lon="17.948462">
        <ele>56.8</ele>
        <time>2013-12-31T13:12:11Z</time>
      </trkpt>
      <trkpt lat="59.248413" lon="17.94849">
        <ele>56.6</ele>
        <time>2013-12-31T13:12:12Z</time>
      </trkpt>
      <trkpt lat="59.248388" lon="17.948525">
        <ele>56.5</ele>
        <time>2013-12-31T13:12:13Z</time>
      </trkpt>
      <trkpt lat="59.248279" lon="17.948654">
        <ele>56.3</ele>
        <time>2013-12-31T13:12:16Z</time>
      </trkpt>
      <trkpt lat="59.24815" lon="17.948813">
        <ele>56.1</ele>
        <time>2013-12-31T13:12:19Z</time>
      </trkpt>
      <trkpt lat="59.248079" lon="17.948902">
        <ele>55.9</ele>
        <time>2013-12-31T13:12:21Z</time>
      </trkpt>
      <trkpt lat="59.248027" lon="17.948987">
        <ele>55.7</ele>
        <time>2013-12-31T13:12:23Z</time>
      </trkpt>
      <trkpt lat="59.248003" lon="17.949079">
        <ele>55.3</ele>
        <time>2013-12-31T13:12:25Z</time>
      </trkpt>
      <trkpt lat="59.247982" lon="17.949215">
        <ele>54.8</ele>
        <time>2013-12-31T13:12:30Z</time>
      </trkpt>
      <trkpt lat="59.247972" lon="17.949388">
        <ele>54.4</ele>
        <time>2013-12-31T13:12:34Z</time>
      </trkpt>
      <trkpt lat="59.247973" lon="17.949469">
        <ele>53.9</ele>
        <time>2013-12-31T13:12:36Z</time>
      </trkpt>
      <trkpt lat="59.247979" lon="17.949559">
        <ele>53.6</ele>
        <time>2013-12-31T13:12:39Z</time>
      </trkpt>
      <trkpt lat="59.248016" lon="17.949711">
        <ele>53.4</ele>
        <time>2013-12-31T13:12:44Z</time>
      </trkpt>
      <trkpt lat="59.248082" lon="17.949842">
        <ele>53.1</ele>
        <time>2013-12-31T13:12:49Z</time>
      </trkpt>
      <trkpt lat="59.248173" lon="17.949942">
        <ele>52.8</ele>
        <time>2013-12-31T13:12:54Z</time>
      </trkpt>
      <trkpt lat="59.248275" lon="17.949981">
        <ele>52.5</ele>
        <time>2013-12-31T13:12:59Z</time>
      </trkpt>
      <trkpt lat="59.248342" lon="17.94999">
        <ele>52.5</ele>
        <time>2013-12-31T13:13:02Z</time>
      </trkpt>
      <trkpt lat="59.248385" lon="17.949973">
        <ele>52.4</ele>
        <time>2013-12-31T13:13:04Z</time>
      </trkpt>
      <trkpt lat="59.248411" lon="17.949955">
        <ele>52.5</ele>
        <time>2013-12-31T13:13:05Z</time>
      </trkpt>
      <trkpt lat="59.248441" lon="17.949935">
        <ele>52.7</ele>
        <time>2013-12-31T13:13:06Z</time>
      </trkpt>
      <trkpt lat="59.24857" lon="17.949765">
        <ele>52.9</ele>
        <time>2013-12-31T13:13:10Z</time>
      </trkpt>
      <trkpt lat="59.24879" lon="17.949554">
        <ele>53.1</ele>
        <time>2013-12-31T13:13:15Z</time>
      </trkpt>
      <trkpt lat="59.248871" lon="17.949458">
        <ele>53.3</ele>
        <time>2013-12-31T13:13:17Z</time>
      </trkpt>
      <trkpt lat="59.248967" lon="17.949315">
        <ele>53.5</ele>
        <time>2013-12-31T13:13:20Z</time>
      </trkpt>
      <trkpt lat="59.249061" lon="17.949194">
        <ele>53.6</ele>
        <time>2013-12-31T13:13:23Z</time>
      </trkpt>
      <trkpt lat="59.24915" lon="17.949071">
        <ele>53.8</ele>
        <time>2013-12-31T13:13:26Z</time>
      </trkpt>
      <trkpt lat="59.249195" lon="17.949018">
        <ele>54</ele>
        <time>2013-12-31T13:13:28Z</time>
      </trkpt>
      <trkpt lat="59.249231" lon="17.948961">
        <ele>54</ele>
        <time>2013-12-31T13:13:30Z</time>
      </trkpt>
      <trkpt lat="59.249268" lon="17.948867">
        <ele>54</ele>
        <time>2013-12-31T13:13:34Z</time>
      </trkpt>
      <trkpt lat="59.249276" lon="17.948849">
        <ele>54</ele>
        <time>2013-12-31T13:13:35Z</time>
      </trkpt>
      <trkpt lat="59.249313" lon="17.94872">
        <ele>54.3</ele>
        <time>2013-12-31T13:13:38Z</time>
      </trkpt>
      <trkpt lat="59.249323" lon="17.948583">
        <ele>54.5</ele>
        <time>2013-12-31T13:13:42Z</time>
      </trkpt>
      <trkpt lat="59.249321" lon="17.9484">
        <ele>54.8</ele>
        <time>2013-12-31T13:13:47Z</time>
      </trkpt>
      <trkpt lat="59.249294" lon="17.948263">
        <ele>55.1</ele>
        <time>2013-12-31T13:13:51Z</time>
      </trkpt>
      <trkpt lat="59.249232" lon="17.948092">
        <ele>55.4</ele>
        <time>2013-12-31T13:13:56Z</time>
      </trkpt>
      <trkpt lat="59.24916" lon="17.947988">
        <ele>55.6</ele>
        <time>2013-12-31T13:14:00Z</time>
      </trkpt>
      <trkpt lat="59.249056" lon="17.947898">
        <ele>55.9</ele>
        <time>2013-12-31T13:14:05Z</time>
      </trkpt>
      <trkpt lat="59.249007" lon="17.947879">
        <ele>56.2</ele>
        <time>2013-12-31T13:14:09Z</time>
      </trkpt>
      <trkpt lat="59.248939" lon="17.94787">
        <ele>56.5</ele>
        <time>2013-12-31T13:14:14Z</time>
      </trkpt>
      <trkpt lat="59.248861" lon="17.947924">
        <ele>56.7</ele>
        <time>2013-12-31T13:14:18Z</time>
      </trkpt>
      <trkpt lat="59.248745" lon="17.948065">
        <ele>57</ele>
        <time>2013-12-31T13:14:22Z</time>
      </trkpt>
      <trkpt lat="59.248539" lon="17.948348">
        <ele>56.8</ele>
        <time>2013-12-31T13:14:28Z</time>
      </trkpt>
      <trkpt lat="59.248383" lon="17.948509">
        <ele>56.6</ele>
        <time>2013-12-31T13:14:32Z</time>
      </trkpt>
      <trkpt lat="59.248316" lon="17.948601">
        <ele>56.5</ele>
        <time>2013-12-31T13:14:34Z</time>
      </trkpt>
      <trkpt lat="59.248211" lon="17.948746">
        <ele>56.3</ele>
        <time>2013-12-31T13:14:37Z</time>
      </trkpt>
      <trkpt lat="59.24817" lon="17.948785">
        <ele>56.1</ele>
        <time>2013-12-31T13:14:38Z</time>
      </trkpt>
      <trkpt lat="59.248067" lon="17.948902">
        <ele>55.9</ele>
        <time>2013-12-31T13:14:41Z</time>
      </trkpt>
      <trkpt lat="59.248038" lon="17.948938">
        <ele>55.7</ele>
        <time>2013-12-31T13:14:42Z</time>
      </trkpt>
      <trkpt lat="59.247995" lon="17.94908">
        <ele>55.5</ele>
        <time>2013-12-31T13:14:45Z</time>
      </trkpt>
      <trkpt lat="59.247976" lon="17.949261">
        <ele>55.1</ele>
        <time>2013-12-31T13:14:50Z</time>
      </trkpt>
      <trkpt lat="59.247975" lon="17.949309">
        <ele>54.6</ele>
        <time>2013-12-31T13:14:51Z</time>
      </trkpt>
      <trkpt lat="59.247976" lon="17.949411">
        <ele>54.2</ele>
        <time>2013-12-31T13:14:54Z</time>
      </trkpt>
      <trkpt lat="59.247986" lon="17.949516">
        <ele>53.9</ele>
        <time>2013-12-31T13:14:57Z</time>
      </trkpt>
      <trkpt lat="59.248003" lon="17.949591">
        <ele>53.6</ele>
        <time>2013-12-31T13:14:59Z</time>
      </trkpt>
      <trkpt lat="59.248033" lon="17.949687">
        <ele>53.4</ele>
        <time>2013-12-31T13:15:02Z</time>
      </trkpt>
      <trkpt lat="59.248058" lon="17.94974">
        <ele>53.1</ele>
        <time>2013-12-31T13:15:04Z</time>
      </trkpt>
      <trkpt lat="59.248131" lon="17.949851">
        <ele>52.8</ele>
        <time>2013-12-31T13:15:08Z</time>
      </trkpt>
      <trkpt lat="59.248188" lon="17.949917">
        <ele>52.7</ele>
        <time>2013-12-31T13:15:12Z</time>
      </trkpt>
      <trkpt lat="59.248274" lon="17.949964">
        <ele>52.6</ele>
        <time>2013-12-31T13:15:17Z</time>
      </trkpt>
      <trkpt lat="59.248347" lon="17.949955">
        <ele>52.5</ele>
        <time>2013-12-31T13:15:21Z</time>
      </trkpt>
      <trkpt lat="59.24845" lon="17.949917">
        <ele>52.7</ele>
        <time>2013-12-31T13:15:25Z</time>
      </trkpt>
      <trkpt lat="59.248588" lon="17.949741">
        <ele>52.9</ele>
        <time>2013-12-31T13:15:29Z</time>
      </trkpt>
      <trkpt lat="59.248797" lon="17.949514">
        <ele>53.1</ele>
        <time>2013-12-31T13:15:34Z</time>
      </trkpt>
      <trkpt lat="59.249002" lon="17.94931">
        <ele>53.3</ele>
        <time>2013-12-31T13:15:39Z</time>
      </trkpt>
      <trkpt lat="59.24906" lon="17.949229">
        <ele>53.5</ele>
        <time>2013-12-31T13:15:41Z</time>
      </trkpt>
      <trkpt lat="59.249125" lon="17.949147">
        <ele>53.6</ele>
        <time>2013-12-31T13:15:43Z</time>
      </trkpt>
      <trkpt lat="59.249223" lon="17.949019">
        <ele>53.8</ele>
        <time>2013-12-31T13:15:46Z</time>
      </trkpt>
      <trkpt lat="59.249261" lon="17.948976">
        <ele>54</ele>
        <time>2013-12-31T13:15:48Z</time>
      </trkpt>
      <trkpt lat="59.249308" lon="17.948853">
        <ele>54</ele>
        <time>2013-12-31T13:15:52Z</time>
      </trkpt>
      <trkpt lat="59.249336" lon="17.94872">
        <ele>54.3</ele>
        <time>2013-12-31T13:15:57Z</time>
      </trkpt>
      <trkpt lat="59.249337" lon="17.948558">
        <ele>54.5</ele>
        <time>2013-12-31T13:16:03Z</time>
      </trkpt>
      <trkpt lat="59.249324" lon="17.948385">
        <ele>54.8</ele>
        <time>2013-12-31T13:16:09Z</time>
      </trkpt>
      <trkpt lat="59.249294" lon="17.948228">
        <ele>55.1</ele>
        <time>2013-12-31T13:16:14Z</time>
      </trkpt>
      <trkpt lat="59.249227" lon="17.948069">
        <ele>55.4</ele>
        <time>2013-12-31T13:16:20Z</time>
      </trkpt>
      <trkpt lat="59.249155" lon="17.947963">
        <ele>55.6</ele>
        <time>2013-12-31T13:16:25Z</time>
      </trkpt>
      <trkpt lat="59.249073" lon="17.947902">
        <ele>55.9</ele>
        <time>2013-12-31T13:16:30Z</time>
      </trkpt>
      <trkpt lat="59.249048" lon="17.947873">
        <ele>56.2</ele>
        <time>2013-12-31T13:16:32Z</time>
      </trkpt>
      <trkpt lat="59.249013" lon="17.947873">
        <ele>56.5</ele>
        <time>2013-12-31T13:16:34Z</time>
      </trkpt>
      <trkpt lat="59.248971" lon="17.947869">
        <ele>56.7</ele>
        <time>2013-12-31T13:16:37Z</time>
      </trkpt>
      <trkpt lat="59.248922" lon="17.947879">
        <ele>57</ele>
        <time>2013-12-31T13:16:40Z</time>
      </trkpt>
      <trkpt lat="59.248837" lon="17.947943">
        <ele>57</ele>
        <time>2013-12-31T13:16:44Z</time>
      </trkpt>
      <trkpt lat="59.248667" lon="17.948132">
        <ele>56.8</ele>
        <time>2013-12-31T13:16:49Z</time>
      </trkpt>
      <trkpt lat="59.248482" lon="17.948359">
        <ele>56.6</ele>
        <time>2013-12-31T13:16:54Z</time>
      </trkpt>
      <trkpt lat="59.248365" lon="17.948491">
        <ele>56.5</ele>
        <time>2013-12-31T13:16:57Z</time>
      </trkpt>
      <trkpt lat="59.248253" lon="17.948646">
        <ele>56.1</ele>
        <time>2013-12-31T13:16:59Z</time>
      </trkpt>
      <trkpt lat="59.248031" lon="17.948912">
        <ele>55.9</ele>
        <time>2013-12-31T13:17:05Z</time>
      </trkpt>
      <trkpt lat="59.248016" lon="17.948957">
        <ele>55.7</ele>
        <time>2013-12-31T13:17:06Z</time>
      </trkpt>
      <trkpt lat="59.247999" lon="17.949029">
        <ele>55.3</ele>
        <time>2013-12-31T13:17:08Z</time>
      </trkpt>
      <trkpt lat="59.247981" lon="17.949098">
        <ele>54.8</ele>
        <time>2013-12-31T13:17:10Z</time>
      </trkpt>
      <trkpt lat="59.24798" lon="17.949193">
        <ele>54.4</ele>
        <time>2013-12-31T13:17:13Z</time>
      </trkpt>
      <trkpt lat="59.247974" lon="17.949351">
        <ele>53.9</ele>
        <time>2013-12-31T13:17:17Z</time>
      </trkpt>
      <trkpt lat="59.247972" lon="17.949505">
        <ele>53.6</ele>
        <time>2013-12-31T13:17:21Z</time>
      </trkpt>
      <trkpt lat="59.248018" lon="17.949649">
        <ele>53.4</ele>
        <time>2013-12-31T13:17:26Z</time>
      </trkpt>
      <trkpt lat="59.248065" lon="17.949784">
        <ele>53.4</ele>
        <time>2013-12-31T13:17:31Z</time>
      </trkpt>
      <trkpt lat="59.248139" lon="17.9499">
        <ele>53.3</ele>
        <time>2013-12-31T13:17:37Z</time>
      </trkpt>
      <trkpt lat="59.248274" lon="17.94997">
        <ele>53.2</ele>
        <time>2013-12-31T13:17:44Z</time>
      </trkpt>
      <trkpt lat="59.248369" lon="17.949963">
        <ele>53.1</ele>
        <time>2013-12-31T13:17:48Z</time>
      </trkpt>
      <trkpt lat="59.248515" lon="17.949835">
        <ele>53</ele>
        <time>2013-12-31T13:17:53Z</time>
      </trkpt>
      <trkpt lat="59.248708" lon="17.94963">
        <ele>53.2</ele>
        <time>2013-12-31T13:17:58Z</time>
      </trkpt>
      <trkpt lat="59.248843" lon="17.949503">
        <ele>53.4</ele>
        <time>2013-12-31T13:18:01Z</time>
      </trkpt>
      <trkpt lat="59.248876" lon="17.949463">
        <ele>53.5</ele>
        <time>2013-12-31T13:18:02Z</time>
      </trkpt>
      <trkpt lat="59.248997" lon="17.94933">
        <ele>53.7</ele>
        <time>2013-12-31T13:18:04Z</time>
      </trkpt>
      <trkpt lat="59.24903" lon="17.949299">
        <ele>53.9</ele>
        <time>2013-12-31T13:18:05Z</time>
      </trkpt>
      <trkpt lat="59.249236" lon="17.949109">
        <ele>54.1</ele>
        <time>2013-12-31T13:18:10Z</time>
      </trkpt>
      <trkpt lat="59.249307" lon="17.948995">
        <ele>54</ele>
        <time>2013-12-31T13:18:14Z</time>
      </trkpt>
      <trkpt lat="59.249295" lon="17.948991">
        <ele>54</ele>
        <time>2013-12-31T13:18:29Z</time>
      </trkpt>
      <trkpt lat="59.249291" lon="17.948974">
        <ele>54</ele>
        <time>2013-12-31T13:18:55Z</time>
      </trkpt>
      <trkpt lat="59.24949" lon="17.949298">
        <ele>54</ele>
        <time>2013-12-31T13:19:28Z</time>
      </trkpt>
      <trkpt lat="59.249504" lon="17.94928">
        <ele>54</ele>
        <time>2013-12-31T13:19:31Z</time>
      </trkpt>
      <trkpt lat="59.249535" lon="17.949241">
        <ele>54</ele>
        <time>2013-12-31T13:19:37Z</time>
      </trkpt>
      <trkpt lat="59.24968" lon="17.94879">
        <ele>54</ele>
        <time>2013-12-31T13:19:48Z</time>
      </trkpt>
      <trkpt lat="59.24972" lon="17.94868">
        <ele>54</ele>
        <time>2013-12-31T13:19:50Z</time>
      </trkpt>
      <trkpt lat="59.24974" lon="17.94864">
        <ele>54</ele>
        <time>2013-12-31T13:19:51Z</time>
      </trkpt>
      <trkpt lat="59.249731" lon="17.948624">
        <ele>54.1</ele>
        <time>2013-12-31T13:19:52Z</time>
      </trkpt>
      <trkpt lat="59.24977" lon="17.94857">
        <ele>54.6</ele>
        <time>2013-12-31T13:19:54Z</time>
      </trkpt>
      <trkpt lat="59.24984" lon="17.94844">
        <ele>54.9</ele>
        <time>2013-12-31T13:19:57Z</time>
      </trkpt>
      <trkpt lat="59.24977" lon="17.94813">
        <ele>55.2</ele>
        <time>2013-12-31T13:20:04Z</time>
      </trkpt>
      <trkpt lat="59.24967" lon="17.94779">
        <ele>55.7</ele>
        <time>2013-12-31T13:20:11Z</time>
      </trkpt>
      <trkpt lat="59.2496" lon="17.94757">
        <ele>56.3</ele>
        <time>2013-12-31T13:20:16Z</time>
      </trkpt>
      <trkpt lat="59.24956" lon="17.94748">
        <ele>56.8</ele>
        <time>2013-12-31T13:20:18Z</time>
      </trkpt>
      <trkpt lat="59.24952" lon="17.9474">
        <ele>57.4</ele>
        <time>2013-12-31T13:20:20Z</time>
      </trkpt>
      <trkpt lat="59.24939" lon="17.94721">
        <ele>57.9</ele>
        <time>2013-12-31T13:20:26Z</time>
      </trkpt>
      <trkpt lat="59.24923" lon="17.947">
        <ele>58.7</ele>
        <time>2013-12-31T13:20:34Z</time>
      </trkpt>
      <trkpt lat="59.24915" lon="17.94688">
        <ele>59.5</ele>
        <time>2013-12-31T13:20:37Z</time>
      </trkpt>
      <trkpt lat="59.24899" lon="17.9466">
        <ele>60</ele>
        <time>2013-12-31T13:20:45Z</time>
      </trkpt>
      <trkpt lat="59.24893" lon="17.9465">
        <ele>60.5</ele>
        <time>2013-12-31T13:20:48Z</time>
      </trkpt>
      <trkpt lat="59.24884" lon="17.94638">
        <ele>61.1</ele>
        <time>2013-12-31T13:20:52Z</time>
      </trkpt>
      <trkpt lat="59.24876" lon="17.94628">
        <ele>61.6</ele>
        <time>2013-12-31T13:20:56Z</time>
      </trkpt>
      <trkpt lat="59.24871" lon="17.94623">
        <ele>61.9</ele>
        <time>2013-12-31T13:20:58Z</time>
      </trkpt>
      <trkpt lat="59.24866" lon="17.94619">
        <ele>62.2</ele>
        <time>2013-12-31T13:21:00Z</time>
      </trkpt>
      <trkpt lat="59.24855" lon="17.94612">
        <ele>62.5</ele>
        <time>2013-12-31T13:21:04Z</time>
      </trkpt>
      <trkpt lat="59.24825" lon="17.94593">
        <ele>62.8</ele>
        <time>2013-12-31T13:21:16Z</time>
      </trkpt>
      <trkpt lat="59.24819" lon="17.94588">
        <ele>63.2</ele>
        <time>2013-12-31T13:21:18Z</time>
      </trkpt>
      <trkpt lat="59.24813" lon="17.94582">
        <ele>63.3</ele>
        <time>2013-12-31T13:21:20Z</time>
      </trkpt>
      <trkpt lat="59.24808" lon="17.94573">
        <ele>63.2</ele>
        <time>2013-12-31T13:21:23Z</time>
      </trkpt>
      <trkpt lat="59.24804" lon="17.94561">
        <ele>63.1</ele>
        <time>2013-12-31T13:21:26Z</time>
      </trkpt>
      <trkpt lat="59.248" lon="17.94545">
        <ele>63</ele>
        <time>2013-12-31T13:21:29Z</time>
      </trkpt>
      <trkpt lat="59.24798" lon="17.94526">
        <ele>62.9</ele>
        <time>2013-12-31T13:21:33Z</time>
      </trkpt>
      <trkpt lat="59.24797" lon="17.94504">
        <ele>62.8</ele>
        <time>2013-12-31T13:21:37Z</time>
      </trkpt>
      <trkpt lat="59.24795" lon="17.94469">
        <ele>62.7</ele>
        <time>2013-12-31T13:21:44Z</time>
      </trkpt>
      <trkpt lat="59.24793" lon="17.94452">
        <ele>62.6</ele>
        <time>2013-12-31T13:21:47Z</time>
      </trkpt>
      <trkpt lat="59.24791" lon="17.94441">
        <ele>62.6</ele>
        <time>2013-12-31T13:21:49Z</time>
      </trkpt>
      <trkpt lat="59.24787" lon="17.94427">
        <ele>62.5</ele>
        <time>2013-12-31T13:21:52Z</time>
      </trkpt>
      <trkpt lat="59.24783" lon="17.94416">
        <ele>62.5</ele>
        <time>2013-12-31T13:21:55Z</time>
      </trkpt>
      <trkpt lat="59.24775" lon="17.94397">
        <ele>62.4</ele>
        <time>2013-12-31T13:21:59Z</time>
      </trkpt>
      <trkpt lat="59.2477" lon="17.94385">
        <ele>62.5</ele>
        <time>2013-12-31T13:22:02Z</time>
      </trkpt>
      <trkpt lat="59.24767" lon="17.94374">
        <ele>62.5</ele>
        <time>2013-12-31T13:22:05Z</time>
      </trkpt>
      <trkpt lat="59.24765" lon="17.94365">
        <ele>62.6</ele>
        <time>2013-12-31T13:22:06Z</time>
      </trkpt>
      <trkpt lat="59.2476" lon="17.94347">
        <ele>62.6</ele>
        <time>2013-12-31T13:22:10Z</time>
      </trkpt>
      <trkpt lat="59.24755" lon="17.94324">
        <ele>62.6</ele>
        <time>2013-12-31T13:22:15Z</time>
      </trkpt>
      <trkpt lat="59.24753" lon="17.94315">
        <ele>62.6</ele>
        <time>2013-12-31T13:22:17Z</time>
      </trkpt>
      <trkpt lat="59.24752" lon="17.94305">
        <ele>62.5</ele>
        <time>2013-12-31T13:22:19Z</time>
      </trkpt>
      <trkpt lat="59.24751" lon="17.94297">
        <ele>62.4</ele>
        <time>2013-12-31T13:22:20Z</time>
      </trkpt>
      <trkpt lat="59.24751" lon="17.94287">
        <ele>62.2</ele>
        <time>2013-12-31T13:22:22Z</time>
      </trkpt>
      <trkpt lat="59.24752" lon="17.94277">
        <ele>62</ele>
        <time>2013-12-31T13:22:24Z</time>
      </trkpt>
      <trkpt lat="59.24756" lon="17.9425">
        <ele>61.9</ele>
        <time>2013-12-31T13:22:29Z</time>
      </trkpt>
      <trkpt lat="59.2477" lon="17.94173">
        <ele>61.8</ele>
        <time>2013-12-31T13:22:45Z</time>
      </trkpt>
      <trkpt lat="59.24772" lon="17.94161">
        <ele>61.7</ele>
        <time>2013-12-31T13:22:47Z</time>
      </trkpt>
      <trkpt lat="59.24772" lon="17.94151">
        <ele>61.6</ele>
        <time>2013-12-31T13:22:49Z</time>
      </trkpt>
      <trkpt lat="59.24773" lon="17.94138">
        <ele>61.6</ele>
        <time>2013-12-31T13:22:52Z</time>
      </trkpt>
      <trkpt lat="59.24772" lon="17.94128">
        <ele>61.6</ele>
        <time>2013-12-31T13:22:54Z</time>
      </trkpt>
      <trkpt lat="59.24772" lon="17.94117">
        <ele>61.6</ele>
        <time>2013-12-31T13:22:56Z</time>
      </trkpt>
      <trkpt lat="59.2477" lon="17.94107">
        <ele>61.7</ele>
        <time>2013-12-31T13:22:58Z</time>
      </trkpt>
      <trkpt lat="59.24768" lon="17.94096">
        <ele>61.8</ele>
        <time>2013-12-31T13:23:00Z</time>
      </trkpt>
      <trkpt lat="59.24765" lon="17.94085">
        <ele>61.9</ele>
        <time>2013-12-31T13:23:02Z</time>
      </trkpt>
      <trkpt lat="59.2476" lon="17.94066">
        <ele>62</ele>
        <time>2013-12-31T13:23:06Z</time>
      </trkpt>
      <trkpt lat="59.24751" lon="17.94043">
        <ele>62</ele>
        <time>2013-12-31T13:23:12Z</time>
      </trkpt>
      <trkpt lat="59.24748" lon="17.94031">
        <ele>62</ele>
        <time>2013-12-31T13:23:14Z</time>
      </trkpt>
      <trkpt lat="59.24745" lon="17.94018">
        <ele>62</ele>
        <time>2013-12-31T13:23:17Z</time>
      </trkpt>
      <trkpt lat="59.247443" lon="17.940129">
        <ele>62.4</ele>
        <time>2013-12-31T13:23:18Z</time>
      </trkpt>
      <trkpt lat="59.247439" lon="17.94007">
        <ele>62.3</ele>
        <time>2013-12-31T13:23:19Z</time>
      </trkpt>
      <trkpt lat="59.2474" lon="17.939887">
        <ele>62.2</ele>
        <time>2013-12-31T13:23:22Z</time>
      </trkpt>
      <trkpt lat="59.247324" lon="17.939657">
        <ele>62.1</ele>
        <time>2013-12-31T13:23:26Z</time>
      </trkpt>
      <trkpt lat="59.247271" lon="17.939525">
        <ele>62</ele>
        <time>2013-12-31T13:23:28Z</time>
      </trkpt>
      <trkpt lat="59.247229" lon="17.939409">
        <ele>61.9</ele>
        <time>2013-12-31T13:23:30Z</time>
      </trkpt>
      <trkpt lat="59.247091" lon="17.939169">
        <ele>61.8</ele>
        <time>2013-12-31T13:23:35Z</time>
      </trkpt>
      <trkpt lat="59.246981" lon="17.939017">
        <ele>61.7</ele>
        <time>2013-12-31T13:23:39Z</time>
      </trkpt>
      <trkpt lat="59.246869" lon="17.938636">
        <ele>61.6</ele>
        <time>2013-12-31T13:23:45Z</time>
      </trkpt>
      <trkpt lat="59.246868" lon="17.93841">
        <ele>61.5</ele>
        <time>2013-12-31T13:23:49Z</time>
      </trkpt>
      <trkpt lat="59.2469" lon="17.938221">
        <ele>61.3</ele>
        <time>2013-12-31T13:23:53Z</time>
      </trkpt>
      <trkpt lat="59.2469" lon="17.938054">
        <ele>61</ele>
        <time>2013-12-31T13:23:56Z</time>
      </trkpt>
      <trkpt lat="59.246909" lon="17.93786">
        <ele>61</ele>
        <time>2013-12-31T13:24:00Z</time>
      </trkpt>
      <trkpt lat="59.24692" lon="17.937607">
        <ele>61.1</ele>
        <time>2013-12-31T13:24:05Z</time>
      </trkpt>
      <trkpt lat="59.246919" lon="17.937386">
        <ele>61.2</ele>
        <time>2013-12-31T13:24:09Z</time>
      </trkpt>
      <trkpt lat="59.246924" lon="17.937124">
        <ele>61.3</ele>
        <time>2013-12-31T13:24:14Z</time>
      </trkpt>
      <trkpt lat="59.246891" lon="17.936787">
        <ele>61.5</ele>
        <time>2013-12-31T13:24:18Z</time>
      </trkpt>
      <trkpt lat="59.24682" lon="17.936455">
        <ele>61.6</ele>
        <time>2013-12-31T13:24:23Z</time>
      </trkpt>
      <trkpt lat="59.246722" lon="17.936252">
        <ele>61.8</ele>
        <time>2013-12-31T13:24:27Z</time>
      </trkpt>
      <trkpt lat="59.246661" lon="17.935969">
        <ele>62.5</ele>
        <time>2013-12-31T13:24:32Z</time>
      </trkpt>
      <trkpt lat="59.246597" lon="17.935638">
        <ele>62.4</ele>
        <time>2013-12-31T13:24:37Z</time>
      </trkpt>
      <trkpt lat="59.246566" lon="17.935385">
        <ele>62.3</ele>
        <time>2013-12-31T13:24:41Z</time>
      </trkpt>
      <trkpt lat="59.246537" lon="17.935177">
        <ele>62.2</ele>
        <time>2013-12-31T13:24:45Z</time>
      </trkpt>
      <trkpt lat="59.246472" lon="17.934911">
        <ele>62.1</ele>
        <time>2013-12-31T13:24:49Z</time>
      </trkpt>
      <trkpt lat="59.246357" lon="17.934605">
        <ele>62</ele>
        <time>2013-12-31T13:24:54Z</time>
      </trkpt>
      <trkpt lat="59.246237" lon="17.934361">
        <ele>61.9</ele>
        <time>2013-12-31T13:24:59Z</time>
      </trkpt>
      <trkpt lat="59.24608" lon="17.934146">
        <ele>61</ele>
        <time>2013-12-31T13:25:03Z</time>
      </trkpt>
      <trkpt lat="59.245932" lon="17.933953">
        <ele>60</ele>
        <time>2013-12-31T13:25:07Z</time>
      </trkpt>
      <trkpt lat="59.24583" lon="17.933831">
        <ele>59.2</ele>
        <time>2013-12-31T13:25:10Z</time>
      </trkpt>
      <trkpt lat="59.245752" lon="17.933753">
        <ele>58.4</ele>
        <time>2013-12-31T13:25:12Z</time>
      </trkpt>
      <trkpt lat="59.245557" lon="17.933514">
        <ele>57.1</ele>
        <time>2013-12-31T13:25:16Z</time>
      </trkpt>
      <trkpt lat="59.245412" lon="17.933192">
        <ele>56.5</ele>
        <time>2013-12-31T13:25:20Z</time>
      </trkpt>
      <trkpt lat="59.245369" lon="17.933128">
        <ele>56</ele>
        <time>2013-12-31T13:25:21Z</time>
      </trkpt>
      <trkpt lat="59.245253" lon="17.932929">
        <ele>55.5</ele>
        <time>2013-12-31T13:25:24Z</time>
      </trkpt>
      <trkpt lat="59.245236" lon="17.932854">
        <ele>54.9</ele>
        <time>2013-12-31T13:25:25Z</time>
      </trkpt>
      <trkpt lat="59.245191" lon="17.932651">
        <ele>54.5</ele>
        <time>2013-12-31T13:25:28Z</time>
      </trkpt>
      <trkpt lat="59.245167" lon="17.9326">
        <ele>54</ele>
        <time>2013-12-31T13:25:29Z</time>
      </trkpt>
      <trkpt lat="59.245136" lon="17.932475">
        <ele>54.4</ele>
        <time>2013-12-31T13:25:32Z</time>
      </trkpt>
      <trkpt lat="59.245088" lon="17.932331">
        <ele>54.2</ele>
        <time>2013-12-31T13:25:35Z</time>
      </trkpt>
      <trkpt lat="59.245079" lon="17.932287">
        <ele>53.8</ele>
        <time>2013-12-31T13:25:36Z</time>
      </trkpt>
      <trkpt lat="59.244977" lon="17.932084">
        <ele>53.5</ele>
        <time>2013-12-31T13:25:41Z</time>
      </trkpt>
      <trkpt lat="59.244858" lon="17.931853">
        <ele>53.1</ele>
        <time>2013-12-31T13:25:46Z</time>
      </trkpt>
      <trkpt lat="59.244661" lon="17.931556">
        <ele>52.7</ele>
        <time>2013-12-31T13:25:52Z</time>
      </trkpt>
      <trkpt lat="59.244491" lon="17.931379">
        <ele>52.4</ele>
        <time>2013-12-31T13:25:57Z</time>
      </trkpt>
      <trkpt lat="59.244351" lon="17.931266">
        <ele>51.7</ele>
        <time>2013-12-31T13:26:02Z</time>
      </trkpt>
      <trkpt lat="59.244214" lon="17.93116">
        <ele>51.1</ele>
        <time>2013-12-31T13:26:07Z</time>
      </trkpt>
      <trkpt lat="59.244086" lon="17.931026">
        <ele>50.3</ele>
        <time>2013-12-31T13:26:10Z</time>
      </trkpt>
      <trkpt lat="59.243936" lon="17.93084">
        <ele>49.5</ele>
        <time>2013-12-31T13:26:15Z</time>
      </trkpt>
      <trkpt lat="59.243807" lon="17.930668">
        <ele>48.8</ele>
        <time>2013-12-31T13:26:19Z</time>
      </trkpt>
      <trkpt lat="59.243729" lon="17.930512">
        <ele>48.7</ele>
        <time>2013-12-31T13:26:22Z</time>
      </trkpt>
      <trkpt lat="59.243605" lon="17.93024">
        <ele>48.6</ele>
        <time>2013-12-31T13:26:27Z</time>
      </trkpt>
      <trkpt lat="59.243509" lon="17.929985">
        <ele>48.5</ele>
        <time>2013-12-31T13:26:32Z</time>
      </trkpt>
      <trkpt lat="59.243402" lon="17.929732">
        <ele>48.4</ele>
        <time>2013-12-31T13:26:38Z</time>
      </trkpt>
      <trkpt lat="59.243357" lon="17.92953">
        <ele>48.2</ele>
        <time>2013-12-31T13:26:42Z</time>
      </trkpt>
      <trkpt lat="59.243308" lon="17.929282">
        <ele>48</ele>
        <time>2013-12-31T13:26:46Z</time>
      </trkpt>
      <trkpt lat="59.243188" lon="17.929149">
        <ele>48</ele>
        <time>2013-12-31T13:26:50Z</time>
      </trkpt>
      <trkpt lat="59.24301" lon="17.928864">
        <ele>48</ele>
        <time>2013-12-31T13:26:55Z</time>
      </trkpt>
      <trkpt lat="59.242833" lon="17.9284">
        <ele>48</ele>
        <time>2013-12-31T13:27:01Z</time>
      </trkpt>
      <trkpt lat="59.242799" lon="17.928333">
        <ele>48</ele>
        <time>2013-12-31T13:27:02Z</time>
      </trkpt>
      <trkpt lat="59.242702" lon="17.928134">
        <ele>47.8</ele>
        <time>2013-12-31T13:27:06Z</time>
      </trkpt>
      <trkpt lat="59.242641" lon="17.927932">
        <ele>47.6</ele>
        <time>2013-12-31T13:27:09Z</time>
      </trkpt>
      <trkpt lat="59.242626" lon="17.927883">
        <ele>46.9</ele>
        <time>2013-12-31T13:27:10Z</time>
      </trkpt>
      <trkpt lat="59.242505" lon="17.927649">
        <ele>46.3</ele>
        <time>2013-12-31T13:27:15Z</time>
      </trkpt>
      <trkpt lat="59.242438" lon="17.927414">
        <ele>45.7</ele>
        <time>2013-12-31T13:27:18Z</time>
      </trkpt>
      <trkpt lat="59.242313" lon="17.927077">
        <ele>45.2</ele>
        <time>2013-12-31T13:27:24Z</time>
      </trkpt>
      <trkpt lat="59.242197" lon="17.926777">
        <ele>44.6</ele>
        <time>2013-12-31T13:27:29Z</time>
      </trkpt>
      <trkpt lat="59.242075" lon="17.926507">
        <ele>44.2</ele>
        <time>2013-12-31T13:27:34Z</time>
      </trkpt>
      <trkpt lat="59.241975" lon="17.926281">
        <ele>43.7</ele>
        <time>2013-12-31T13:27:38Z</time>
      </trkpt>
      <trkpt lat="59.24187" lon="17.925985">
        <ele>43.3</ele>
        <time>2013-12-31T13:27:43Z</time>
      </trkpt>
      <trkpt lat="59.241721" lon="17.925635">
        <ele>42.9</ele>
        <time>2013-12-31T13:27:49Z</time>
      </trkpt>
      <trkpt lat="59.241601" lon="17.925367">
        <ele>42.4</ele>
        <time>2013-12-31T13:27:54Z</time>
      </trkpt>
      <trkpt lat="59.241483" lon="17.925102">
        <ele>41.9</ele>
        <time>2013-12-31T13:28:00Z</time>
      </trkpt>
      <trkpt lat="59.241367" lon="17.924844">
        <ele>42</ele>
        <time>2013-12-31T13:28:05Z</time>
      </trkpt>
      <trkpt lat="59.241344" lon="17.924771">
        <ele>42</ele>
        <time>2013-12-31T13:28:08Z</time>
      </trkpt>
      <trkpt lat="59.24131" lon="17.924766">
        <ele>42.3</ele>
        <time>2013-12-31T13:28:21Z</time>
      </trkpt>
      <trkpt lat="59.241205" lon="17.924568">
        <ele>42.4</ele>
        <time>2013-12-31T13:28:26Z</time>
      </trkpt>
      <trkpt lat="59.241099" lon="17.924219">
        <ele>42.5</ele>
        <time>2013-12-31T13:28:31Z</time>
      </trkpt>
      <trkpt lat="59.240999" lon="17.923921">
        <ele>43.1</ele>
        <time>2013-12-31T13:28:35Z</time>
      </trkpt>
      <trkpt lat="59.240898" lon="17.923631">
        <ele>43.6</ele>
        <time>2013-12-31T13:28:40Z</time>
      </trkpt>
      <trkpt lat="59.240778" lon="17.923328">
        <ele>43.5</ele>
        <time>2013-12-31T13:28:45Z</time>
      </trkpt>
      <trkpt lat="59.240689" lon="17.923133">
        <ele>43.6</ele>
        <time>2013-12-31T13:28:49Z</time>
      </trkpt>
      <trkpt lat="59.240618" lon="17.923025">
        <ele>43.8</ele>
        <time>2013-12-31T13:28:52Z</time>
      </trkpt>
      <trkpt lat="59.240528" lon="17.922868">
        <ele>44</ele>
        <time>2013-12-31T13:28:56Z</time>
      </trkpt>
      <trkpt lat="59.24047" lon="17.922792">
        <ele>44.1</ele>
        <time>2013-12-31T13:28:58Z</time>
      </trkpt>
      <trkpt lat="59.240411" lon="17.922786">
        <ele>44</ele>
        <time>2013-12-31T13:29:00Z</time>
      </trkpt>
      <trkpt lat="59.240348" lon="17.922967">
        <ele>43.9</ele>
        <time>2013-12-31T13:29:04Z</time>
      </trkpt>
      <trkpt lat="59.240355" lon="17.923246">
        <ele>43.8</ele>
        <time>2013-12-31T13:29:08Z</time>
      </trkpt>
      <trkpt lat="59.240386" lon="17.923481">
        <ele>43.6</ele>
        <time>2013-12-31T13:29:12Z</time>
      </trkpt>
      <trkpt lat="59.240432" lon="17.923712">
        <ele>43</ele>
        <time>2013-12-31T13:29:16Z</time>
      </trkpt>
      <trkpt lat="59.240498" lon="17.924039">
        <ele>42.4</ele>
        <time>2013-12-31T13:29:21Z</time>
      </trkpt>
      <trkpt lat="59.240567" lon="17.924352">
        <ele>42.3</ele>
        <time>2013-12-31T13:29:26Z</time>
      </trkpt>
      <trkpt lat="59.240646" lon="17.924643">
        <ele>42</ele>
        <time>2013-12-31T13:29:30Z</time>
      </trkpt>
      <trkpt lat="59.240689" lon="17.924999">
        <ele>41.7</ele>
        <time>2013-12-31T13:29:34Z</time>
      </trkpt>
      <trkpt lat="59.240693" lon="17.925082">
        <ele>41.5</ele>
        <time>2013-12-31T13:29:35Z</time>
      </trkpt>
      <trkpt lat="59.240713" lon="17.925232">
        <ele>41.3</ele>
        <time>2013-12-31T13:29:37Z</time>
      </trkpt>
      <trkpt lat="59.240765" lon="17.925474">
        <ele>41.2</ele>
        <time>2013-12-31T13:29:40Z</time>
      </trkpt>
      <trkpt lat="59.240784" lon="17.925626">
        <ele>41.1</ele>
        <time>2013-12-31T13:29:41Z</time>
      </trkpt>
      <trkpt lat="59.240811" lon="17.925793">
        <ele>41.1</ele>
        <time>2013-12-31T13:29:43Z</time>
      </trkpt>
      <trkpt lat="59.240833" lon="17.925872">
        <ele>41.2</ele>
        <time>2013-12-31T13:29:44Z</time>
      </trkpt>
      <trkpt lat="59.240869" lon="17.926128">
        <ele>41.3</ele>
        <time>2013-12-31T13:29:47Z</time>
      </trkpt>
      <trkpt lat="59.240902" lon="17.926263">
        <ele>41.4</ele>
        <time>2013-12-31T13:29:49Z</time>
      </trkpt>
      <trkpt lat="59.240999" lon="17.926758">
        <ele>41.5</ele>
        <time>2013-12-31T13:29:55Z</time>
      </trkpt>
      <trkpt lat="59.241051" lon="17.927184">
        <ele>41.9</ele>
        <time>2013-12-31T13:30:00Z</time>
      </trkpt>
      <trkpt lat="59.241082" lon="17.927341">
        <ele>42.4</ele>
        <time>2013-12-31T13:30:02Z</time>
      </trkpt>
      <trkpt lat="59.241111" lon="17.927491">
        <ele>42.8</ele>
        <time>2013-12-31T13:30:04Z</time>
      </trkpt>
      <trkpt lat="59.24118" lon="17.927775">
        <ele>43.2</ele>
        <time>2013-12-31T13:30:08Z</time>
      </trkpt>
      <trkpt lat="59.241215" lon="17.927938">
        <ele>43.5</ele>
        <time>2013-12-31T13:30:10Z</time>
      </trkpt>
      <trkpt lat="59.241268" lon="17.928278">
        <ele>43.9</ele>
        <time>2013-12-31T13:30:14Z</time>
      </trkpt>
      <trkpt lat="59.241298" lon="17.928457">
        <ele>44.2</ele>
        <time>2013-12-31T13:30:16Z</time>
      </trkpt>
      <trkpt lat="59.241352" lon="17.928722">
        <ele>44.4</ele>
        <time>2013-12-31T13:30:19Z</time>
      </trkpt>
      <trkpt lat="59.241392" lon="17.928884">
        <ele>44.5</ele>
        <time>2013-12-31T13:30:21Z</time>
      </trkpt>
      <trkpt lat="59.241422" lon="17.929126">
        <ele>44.7</ele>
        <time>2013-12-31T13:30:24Z</time>
      </trkpt>
      <trkpt lat="59.241491" lon="17.929498">
        <ele>44.8</ele>
        <time>2013-12-31T13:30:28Z</time>
      </trkpt>
      <trkpt lat="59.241509" lon="17.92961">
        <ele>44.5</ele>
        <time>2013-12-31T13:30:29Z</time>
      </trkpt>
      <trkpt lat="59.241556" lon="17.929994">
        <ele>44.3</ele>
        <time>2013-12-31T13:30:33Z</time>
      </trkpt>
      <trkpt lat="59.241561" lon="17.930088">
        <ele>43.8</ele>
        <time>2013-12-31T13:30:34Z</time>
      </trkpt>
      <trkpt lat="59.241581" lon="17.93019">
        <ele>43.5</ele>
        <time>2013-12-31T13:30:35Z</time>
      </trkpt>
      <trkpt lat="59.241656" lon="17.930567">
        <ele>43.1</ele>
        <time>2013-12-31T13:30:39Z</time>
      </trkpt>
      <trkpt lat="59.241682" lon="17.930665">
        <ele>42.7</ele>
        <time>2013-12-31T13:30:40Z</time>
      </trkpt>
      <trkpt lat="59.241731" lon="17.930949">
        <ele>42.4</ele>
        <time>2013-12-31T13:30:43Z</time>
      </trkpt>
      <trkpt lat="59.241796" lon="17.93148">
        <ele>42.1</ele>
        <time>2013-12-31T13:30:48Z</time>
      </trkpt>
      <trkpt lat="59.241818" lon="17.932036">
        <ele>41.7</ele>
        <time>2013-12-31T13:30:54Z</time>
      </trkpt>
      <trkpt lat="59.241815" lon="17.932268">
        <ele>41.4</ele>
        <time>2013-12-31T13:30:57Z</time>
      </trkpt>
      <trkpt lat="59.241829" lon="17.932432">
        <ele>41.1</ele>
        <time>2013-12-31T13:30:59Z</time>
      </trkpt>
      <trkpt lat="59.241821" lon="17.932737">
        <ele>40.7</ele>
        <time>2013-12-31T13:31:03Z</time>
      </trkpt>
      <trkpt lat="59.241817" lon="17.932894">
        <ele>40.4</ele>
        <time>2013-12-31T13:31:05Z</time>
      </trkpt>
      <trkpt lat="59.241811" lon="17.933091">
        <ele>40.2</ele>
        <time>2013-12-31T13:31:08Z</time>
      </trkpt>
      <trkpt lat="59.241821" lon="17.933442">
        <ele>39.8</ele>
        <time>2013-12-31T13:31:13Z</time>
      </trkpt>
      <trkpt lat="59.241831" lon="17.933696">
        <ele>39.5</ele>
        <time>2013-12-31T13:31:17Z</time>
      </trkpt>
      <trkpt lat="59.241844" lon="17.934075">
        <ele>39.2</ele>
        <time>2013-12-31T13:31:22Z</time>
      </trkpt>
      <trkpt lat="59.241848" lon="17.934348">
        <ele>38.9</ele>
        <time>2013-12-31T13:31:26Z</time>
      </trkpt>
      <trkpt lat="59.241851" lon="17.934708">
        <ele>38.6</ele>
        <time>2013-12-31T13:31:31Z</time>
      </trkpt>
      <trkpt lat="59.241857" lon="17.93507">
        <ele>38.5</ele>
        <time>2013-12-31T13:31:36Z</time>
      </trkpt>
      <trkpt lat="59.241804" lon="17.935326">
        <ele>38</ele>
        <time>2013-12-31T13:31:40Z</time>
      </trkpt>
      <trkpt lat="59.241702" lon="17.935627">
        <ele>37.5</ele>
        <time>2013-12-31T13:31:45Z</time>
      </trkpt>
      <trkpt lat="59.241592" lon="17.935799">
        <ele>37.2</ele>
        <time>2013-12-31T13:31:49Z</time>
      </trkpt>
      <trkpt lat="59.241453" lon="17.936023">
        <ele>36.8</ele>
        <time>2013-12-31T13:31:53Z</time>
      </trkpt>
      <trkpt lat="59.241315" lon="17.936257">
        <ele>36.8</ele>
        <time>2013-12-31T13:31:58Z</time>
      </trkpt>
      <trkpt lat="59.241147" lon="17.936484">
        <ele>37</ele>
        <time>2013-12-31T13:32:03Z</time>
      </trkpt>
      <trkpt lat="59.240997" lon="17.936721">
        <ele>36.8</ele>
        <time>2013-12-31T13:32:09Z</time>
      </trkpt>
      <trkpt lat="59.240855" lon="17.936936">
        <ele>36.6</ele>
        <time>2013-12-31T13:32:14Z</time>
      </trkpt>
      <trkpt lat="59.240714" lon="17.937144">
        <ele>36.5</ele>
        <time>2013-12-31T13:32:19Z</time>
      </trkpt>
      <trkpt lat="59.24058" lon="17.937352">
        <ele>36.3</ele>
        <time>2013-12-31T13:32:24Z</time>
      </trkpt>
      <trkpt lat="59.24044" lon="17.937576">
        <ele>36.2</ele>
        <time>2013-12-31T13:32:29Z</time>
      </trkpt>
      <trkpt lat="59.240263" lon="17.937859">
        <ele>36.4</ele>
        <time>2013-12-31T13:32:35Z</time>
      </trkpt>
      <trkpt lat="59.240115" lon="17.938099">
        <ele>36.5</ele>
        <time>2013-12-31T13:32:40Z</time>
      </trkpt>
      <trkpt lat="59.240032" lon="17.93829">
        <ele>36.9</ele>
        <time>2013-12-31T13:32:44Z</time>
      </trkpt>
      <trkpt lat="59.239972" lon="17.938538">
        <ele>37.3</ele>
        <time>2013-12-31T13:32:48Z</time>
      </trkpt>
      <trkpt lat="59.239913" lon="17.938908">
        <ele>37.3</ele>
        <time>2013-12-31T13:32:53Z</time>
      </trkpt>
      <trkpt lat="59.239876" lon="17.939252">
        <ele>37.3</ele>
        <time>2013-12-31T13:32:57Z</time>
      </trkpt>
      <trkpt lat="59.239859" lon="17.939558">
        <ele>37.6</ele>
        <time>2013-12-31T13:33:00Z</time>
      </trkpt>
      <trkpt lat="59.239842" lon="17.939863">
        <ele>37.9</ele>
        <time>2013-12-31T13:33:01Z</time>
      </trkpt>
      <trkpt lat="59.239825" lon="17.940169">
        <ele>38.1</ele>
        <time>2013-12-31T13:33:05Z</time>
      </trkpt>
      <trkpt lat="59.239808" lon="17.940475">
        <ele>38.3</ele>
        <time>2013-12-31T13:33:10Z</time>
      </trkpt>
      <trkpt lat="59.23979" lon="17.94078">
        <ele>38.4</ele>
        <time>2013-12-31T13:33:13Z</time>
      </trkpt>
      <trkpt lat="59.239766" lon="17.941004">
        <ele>38.3</ele>
        <time>2013-12-31T13:33:17Z</time>
      </trkpt>
      <trkpt lat="59.239741" lon="17.941229">
        <ele>38.6</ele>
        <time>2013-12-31T13:33:21Z</time>
      </trkpt>
      <trkpt lat="59.239717" lon="17.941453">
        <ele>38.8</ele>
        <time>2013-12-31T13:33:26Z</time>
      </trkpt>
      <trkpt lat="59.239692" lon="17.94168">
        <ele>39</ele>
        <time>2013-12-31T13:33:31Z</time>
      </trkpt>
      <trkpt lat="59.239668" lon="17.941907">
        <ele>39.2</ele>
        <time>2013-12-31T13:33:37Z</time>
      </trkpt>
      <trkpt lat="59.239554" lon="17.942053">
        <ele>39.4</ele>
        <time>2013-12-31T13:33:41Z</time>
      </trkpt>
      <trkpt lat="59.239441" lon="17.9422">
        <ele>39.5</ele>
        <time>2013-12-31T13:33:45Z</time>
      </trkpt>
      <trkpt lat="59.239327" lon="17.942348">
        <ele>39.7</ele>
        <time>2013-12-31T13:33:50Z</time>
      </trkpt>
      <trkpt lat="59.23937" lon="17.94248">
        <ele>40</ele>
        <time>2013-12-31T13:33:53Z</time>
      </trkpt>
      <trkpt lat="59.23928" lon="17.94256">
        <ele>40.5</ele>
        <time>2013-12-31T13:33:56Z</time>
      </trkpt>
      <trkpt lat="59.23925" lon="17.94259">
        <ele>41</ele>
        <time>2013-12-31T13:33:57Z</time>
      </trkpt>
      <trkpt lat="59.239241" lon="17.942567">
        <ele>41</ele>
        <time>2013-12-31T13:33:58Z</time>
      </trkpt>
      <trkpt lat="59.239213" lon="17.942496">
        <ele>41.5</ele>
        <time>2013-12-31T13:34:00Z</time>
      </trkpt>
      <trkpt lat="59.2391" lon="17.942645">
        <ele>41.8</ele>
        <time>2013-12-31T13:34:06Z</time>
      </trkpt>
      <trkpt lat="59.238972" lon="17.942702">
        <ele>42.1</ele>
        <time>2013-12-31T13:34:10Z</time>
      </trkpt>
      <trkpt lat="59.238788" lon="17.942792">
        <ele>42.5</ele>
        <time>2013-12-31T13:34:16Z</time>
      </trkpt>
      <trkpt lat="59.238649" lon="17.942955">
        <ele>43</ele>
        <time>2013-12-31T13:34:21Z</time>
      </trkpt>
      <trkpt lat="59.238564" lon="17.943154">
        <ele>43.5</ele>
        <time>2013-12-31T13:34:25Z</time>
      </trkpt>
      <trkpt lat="59.238481" lon="17.943344">
        <ele>43.9</ele>
        <time>2013-12-31T13:34:29Z</time>
      </trkpt>
      <trkpt lat="59.238379" lon="17.943586">
        <ele>44.5</ele>
        <time>2013-12-31T13:34:34Z</time>
      </trkpt>
      <trkpt lat="59.238291" lon="17.943844">
        <ele>45.2</ele>
        <time>2013-12-31T13:34:39Z</time>
      </trkpt>
      <trkpt lat="59.238216" lon="17.944086">
        <ele>45.8</ele>
        <time>2013-12-31T13:34:43Z</time>
      </trkpt>
      <trkpt lat="59.238191" lon="17.944394">
        <ele>45.8</ele>
        <time>2013-12-31T13:34:48Z</time>
      </trkpt>
      <trkpt lat="59.238148" lon="17.944693">
        <ele>45.8</ele>
        <time>2013-12-31T13:34:53Z</time>
      </trkpt>
      <trkpt lat="59.238111" lon="17.944981">
        <ele>46.2</ele>
        <time>2013-12-31T13:34:59Z</time>
      </trkpt>
      <trkpt lat="59.238077" lon="17.945168">
        <ele>46.5</ele>
        <time>2013-12-31T13:35:02Z</time>
      </trkpt>
      <trkpt lat="59.238035" lon="17.945391">
        <ele>46.6</ele>
        <time>2013-12-31T13:35:06Z</time>
      </trkpt>
      <trkpt lat="59.237957" lon="17.945727">
        <ele>46.7</ele>
        <time>2013-12-31T13:35:12Z</time>
      </trkpt>
      <trkpt lat="59.237927" lon="17.945997">
        <ele>46.8</ele>
        <time>2013-12-31T13:35:17Z</time>
      </trkpt>
      <trkpt lat="59.237972" lon="17.94621">
        <ele>46.9</ele>
        <time>2013-12-31T13:35:22Z</time>
      </trkpt>
      <trkpt lat="59.237993" lon="17.946271">
        <ele>46.7</ele>
        <time>2013-12-31T13:35:25Z</time>
      </trkpt>
    </trkseg>
  </trk>
</gpx>